Data for 02/11/2013

Time Sea-Level Adjusted Pressure Absolute Pressure Temperature Relative Humidity Dew Point Precipitation   
(mb) (inHg) (mb) (inHg) (C) (F) (%) (C) (F) (mm) (in)
00:01 1021 30.15 850 25.1 -14.5 6 76 -17.8 -0.1 0 0
00:02 1021 30.15 850 25.1 -14.2 6.5 74 -17.9 -0.2 0 0
00:03 1021 30.15 850 25.1 -14.1 6.6 73 -18.1 -0.5 0 0
00:04 1021 30.15 850 25.1 -14.1 6.6 73 -18.1 -0.5 0 0
00:05 1021 30.15 850 25.1 -14.3 6.4 73 -18 -0.4 0 0
00:06 1021 30.15 850 25.1 -14.4 6.2 74 -18 -0.5 0 0
00:07 1021 30.15 850 25.1 -14.4 6.1 76 -17.8 0 0 0
00:08 1021 30.15 850 25.1 -14.4 6.2 74 -18.1 -0.5 0 0
00:09 1021 30.15 850 25.1 -14.4 6.2 74 -18 -0.4 0 0
00:10 1021 30.15 850 25.1 -14.3 6.2 74 -18.1 -0.5 0 0
00:11 1021 30.15 850 25.1 -14.3 6.2 75 -17.9 -0.3 0 0
00:12 1021 30.15 850 25.1 -14.2 6.4 74 -17.9 -0.2 0 0
00:13 1021 30.15 850 25.1 -14.2 6.4 73 -18 -0.4 0 0
00:14 1021 30.15 850 25.1 -14.2 6.4 73 -18 -0.4 0 0
00:15 1021 30.15 850 25.1 -14.2 6.4 73 -18 -0.4 0 0
00:16 1021 30.15 850 25.1 -14.2 6.4 74 -17.9 -0.2 0 0
00:17 1021 30.15 850 25.1 -14.2 6.5 74 -17.8 -0 0 0
00:18 1021 30.15 850 25.1 -14.1 6.7 75 -17.7 0.2 0 0
00:19 1021 30.15 850 25.1 -14 6.8 74 -17.6 0.3 0 0
00:20 1021 30.15 850 25.1 -13.9 7 74 -17.6 0.3 0 0
00:21 1021 30.15 850 25.1 -13.9 7 73 -17.8 -0 0 0
00:22 1021 30.15 850 25.1 -13.9 7 72 -17.8 -0.1 0 0
00:23 1021 30.15 850 25.1 -13.9 7 72 -17.9 -0.2 0 0
00:24 1021 30.15 850 25.1 -14 6.9 72 -17.9 -0.2 0 0
00:25 1021 30.15 850 25.1 -14 6.8 72 -18 -0.4 0 0
00:26 1021 30.15 850 25.1 -14.1 6.7 72 -18.1 -0.6 0 0
00:27 1021 30.15 850 25.1 -14.2 6.4 71 -18.3 -1 0 0
00:28 1021 30.15 850 25.1 -14.5 6 71 -18.7 -1.6 0 0
00:29 1021 30.15 850 25.1 -14.7 5.5 71 -18.9 -2.1 0 0
00:30 1021 30.15 850 25.1 -15 4.9 71 -19.1 -2.4 0 0
00:31 1021 30.15 850 25.1 -15.3 4.4 75 -18.8 -1.9 0 0
00:32 1021 30.15 850 25.1 -15.2 4.7 78 -18.2 -0.7 0 0
00:33 1021 30.15 850 25.1 -15 5.1 76 -18.3 -1 0 0
00:34 1021 30.15 850 25.1 -15 5.1 73 -18.9 -1.9 0 0
00:35 1021 30.15 850 25.1 -15.4 4.2 73 -19.2 -2.6 0 0
00:36 1021 30.15 850 25.1 -15.6 3.9 78 -18.5 -1.4 0 0
00:37 1021 30.15 850 25.1 -15.5 4.2 79 -18.3 -1 0 0
00:38 1021 30.15 850 25.1 -15.2 4.7 79 -18 -0.4 0 0
00:39 1021 30.15 850 25.1 -15.2 4.7 74 -18.9 -2 0 0
00:40 1021 30.15 850 25.1 -15.4 4.4 77 -18.6 -1.5 0 0
00:41 1021 30.15 850 25.1 -15.3 4.4 78 -18.3 -1 0 0
00:42 1021 30.15 850 25.1 -15.2 4.6 79 -18.1 -0.6 0 0
00:43 1021 30.15 850 25.1 -15 5 80 -17.7 0.2 0 0
00:44 1021 30.15 850 25.1 -14.7 5.5 79 -17.6 0.3 0 0
00:45 1021 30.15 850 25.1 -14.6 5.8 78 -17.6 0.4 0 0
00:46 1021 30.15 850 25.1 -14.5 5.8 77 -17.7 0.1 0 0
00:47 1021 30.15 850 25.1 -14.6 5.7 76 -18 -0.4 0 0
00:48 1021 30.15 850 25.1 -14.8 5.4 74 -18.5 -1.3 0 0
00:49 1021 30.15 850 25.1 -15 5 79 -17.9 -0.2 0 0
00:50 1021 30.15 850 25.1 -14.8 5.4 79 -17.7 0.2 0 0
00:51 1021 30.15 850 25.1 -14.7 5.6 80 -17.5 0.5 0 0
00:52 1021 30.15 850 25.1 -14.5 6 79 -17.4 0.8 0 0
00:53 1021 30.15 850 25.1 -14.3 6.2 77 -17.5 0.6 0 0
00:54 1021 30.15 850 25.1 -14.4 6.1 75 -17.9 -0.3 0 0
00:55 1021 30.15 850 25.1 -14.6 5.7 73 -18.4 -1.1 0 0
00:56 1021 30.15 850 25.1 -15 5.1 72 -19 -2.2 0 0
00:57 1021 30.15 850 25.1 -15.4 4.2 73 -19.3 -2.7 0 0
00:58 1021 30.15 850 25.1 -15.7 3.7 73 -19.5 -3.1 0 0
00:59 1021 30.15 850 25.1 -16.1 3.1 74 -19.6 -3.3 0 0
01:00 1021 30.15 850 25.1 -16.1 3 77 -19.3 -2.7 0 0
01:01 1021 30.15 850 25.1 -16.1 3.1 79 -18.9 -2 0 0
01:02 1021 30.15 850 25.1 -15.4 4.3 81 -18 -0.4 0 0
01:03 1021 30.15 850 25.1 -14.9 5.2 78 -17.9 -0.3 0 0
01:04 1021 30.15 850 25.1 -14.6 5.8 76 -17.9 -0.2 0 0
01:05 1020 30.12 850 25.1 -14.3 6.2 74 -17.9 -0.3 0 0
01:06 1020 30.12 850 25.1 -14.2 6.4 74 -17.9 -0.2 0 0
01:07 1020 30.12 850 25.1 -14.1 6.7 73 -17.9 -0.2 0 0
01:08 1020 30.12 850 25.1 -14 6.9 73 -17.8 -0.1 0 0
01:09 1020 30.12 850 25.1 -13.7 7.3 73 -17.6 0.3 0 0
01:10 1020 30.12 850 25.1 -13.5 7.7 72 -17.6 0.3 0 0
01:11 1020 30.12 850 25.1 -13.4 7.9 71 -17.5 0.5 0 0
01:12 1020 30.12 849 25.07 -13.3 8 72 -17.4 0.6 0 0
01:13 1020 30.12 850 25.1 -13.4 7.9 70 -17.7 0.1 0 0
01:14 1020 30.12 849 25.07 -13.6 7.6 72 -17.5 0.5 0 0
01:15 1020 30.12 849 25.07 -13.7 7.4 74 -17.4 0.7 0 0
01:16 1020 30.12 849 25.07 -13.8 7.2 75 -17.4 0.7 0 0
01:17 1020 30.12 849 25.07 -13.9 6.9 75 -17.4 0.6 0 0
01:18 1020 30.12 849 25.07 -14.1 6.7 76 -17.4 0.6 0 0
01:19 1020 30.12 849 25.07 -14.2 6.4 76 -17.5 0.5 0 0
01:20 1020 30.12 849 25.07 -14.4 6.1 76 -17.7 0.1 0 0
01:21 1020 30.12 849 25.07 -14.6 5.8 77 -17.7 0.1 0 0
01:22 1020 30.12 849 25.07 -14.6 5.6 78 -17.7 0.1 0 0
01:23 1020 30.12 849 25.07 -14.8 5.4 78 -17.9 -0.1 0 0
01:24 1020 30.12 850 25.1 -14.9 5.2 78 -17.9 -0.2 0 0
01:25 1020 30.12 850 25.1 -14.9 5.3 79 -17.7 0.2 0 0
01:26 1020 30.12 850 25.1 -14.8 5.4 79 -17.6 0.3 0 0
01:27 1020 30.12 850 25.1 -14.7 5.5 78 -17.8 -0.1 0 0
01:28 1020 30.12 850 25.1 -14.9 5.2 76 -18.3 -0.9 0 0
01:29 1020 30.12 850 25.1 -15.2 4.7 73 -18.9 -2.1 0 0
01:30 1020 30.12 850 25.1 -15.5 4.1 74 -19.1 -2.4 0 0
01:31 1020 30.12 850 25.1 -15.8 3.6 79 -18.7 -1.6 0 0
01:32 1020 30.12 850 25.1 -15.8 3.5 81 -18.4 -1.1 0 0
01:33 1020 30.12 850 25.1 -15.7 3.8 82 -18.1 -0.6 0 0
01:34 1020 30.12 850 25.1 -15.4 4.2 83 -17.7 0.2 0 0
01:35 1020 30.12 850 25.1 -15.1 4.8 80 -17.9 -0.2 0 0
01:36 1020 30.12 850 25.1 -15.1 4.8 75 -18.6 -1.4 0 0
01:37 1020 30.12 850 25.1 -15.2 4.6 77 -18.4 -1.1 0 0
01:38 1020 30.12 850 25.1 -15.1 4.8 78 -18.1 -0.6 0 0
01:39 1020 30.12 850 25.1 -14.9 5.2 78 -18 -0.4 0 0
01:40 1020 30.12 850 25.1 -14.7 5.5 78 -17.8 0 0 0
01:41 1020 30.12 850 25.1 -14.5 5.8 72 -18.5 -1.4 0 0
01:42 1020 30.12 849 25.07 -14.8 5.4 74 -18.4 -1.1 0 0
01:43 1020 30.12 849 25.07 -14.8 5.3 75 -18.4 -1.1 0 0
01:44 1020 30.12 849 25.07 -14.9 5.2 74 -18.5 -1.3 0 0
01:45 1020 30.12 849 25.07 -14.9 5.3 76 -18.3 -0.9 0 0
01:46 1020 30.12 849 25.07 -14.8 5.4 76 -18 -0.5 0 0
01:47 1020 30.12 849 25.07 -14.6 5.8 77 -17.8 0 0 0
01:48 1020 30.12 849 25.07 -14.5 6 72 -18.5 -1.3 0 0
01:49 1020 30.12 849 25.07 -14.5 5.9 76 -17.8 0 0 0
01:50 1020 30.12 849 25.07 -14.3 6.4 76 -17.6 0.2 0 0
01:51 1020 30.12 849 25.07 -14 6.8 74 -17.7 0.2 0 0
01:52 1020 30.12 849 25.07 -13.9 6.9 70 -18.2 -0.8 0 0
01:53 1020 30.12 849 25.07 -14.3 6.3 73 -18.1 -0.6 0 0
01:54 1020 30.12 849 25.07 -14.4 6.2 71 -18.5 -1.4 0 0
01:55 1020 30.12 849 25.07 -14.5 6 74 -18.2 -0.8 0 0
01:56 1020 30.12 849 25.07 -14.3 6.2 75 -17.9 -0.2 0 0
01:57 1020 30.12 849 25.07 -14.2 6.5 71 -18.3 -1 0 0
01:58 1020 30.12 849 25.07 -14.2 6.5 72 -18.1 -0.6 0 0
01:59 1020 30.12 849 25.07 -14.1 6.6 70 -18.4 -1.1 0 0
02:00 1020 30.12 849 25.07 -14.2 6.4 71 -18.4 -1.1 0 0
02:01 1020 30.12 849 25.07 -14.3 6.3 72 -18.3 -0.9 0 0
02:02 1020 30.12 849 25.07 -14.3 6.3 73 -18.1 -0.7 0 0
02:03 1020 30.12 849 25.07 -14.1 6.6 72 -18.1 -0.6 0 0
02:04 1020 30.12 849 25.07 -14.2 6.4 71 -18.4 -1.2 0 0
02:05 1020 30.12 849 25.07 -14.3 6.3 74 -18 -0.4 0 0
02:06 1020 30.12 849 25.07 -14.2 6.5 74 -17.9 -0.2 0 0
02:07 1020 30.12 849 25.07 -14.1 6.7 75 -17.7 0.2 0 0
02:08 1020 30.12 849 25.07 -13.9 7.1 72 -17.9 -0.2 0 0
02:09 1020 30.12 849 25.07 -13.9 6.9 69 -18.5 -1.4 0 0
02:10 1020 30.12 849 25.07 -14.2 6.4 70 -18.6 -1.5 0 0
02:11 1020 30.12 849 25.07 -14.5 5.8 69 -19 -2.3 0 0
02:12 1020 30.12 849 25.07 -14.8 5.3 73 -18.7 -1.6 0 0
02:13 1020 30.12 849 25.07 -14.7 5.5 73 -18.5 -1.4 0 0
02:14 1020 30.12 849 25.07 -14.7 5.5 72 -18.8 -1.8 0 0
02:15 1020 30.12 849 25.07 -14.7 5.5 75 -18.2 -0.8 0 0
02:16 1020 30.12 849 25.07 -14.5 5.9 74 -18.2 -0.7 0 0
02:17 1020 30.12 849 25.07 -14.3 6.3 74 -18 -0.3 0 0
02:18 1020 30.12 849 25.07 -14 6.8 73 -17.8 -0.1 0 0
02:19 1020 30.12 849 25.07 -13.9 6.9 69 -18.5 -1.3 0 0
02:20 1020 30.12 849 25.07 -14.2 6.4 69 -18.7 -1.6 0 0
02:21 1020 30.12 849 25.07 -14.5 5.9 70 -18.9 -1.9 0 0
02:22 1020 30.12 849 25.07 -14.8 5.3 66 -19.9 -3.7 0 0
02:23 1020 30.12 849 25.07 -15.5 4.1 73 -19.3 -2.8 0 0
02:24 1020 30.12 849 25.07 -15.5 4.1 74 -19.1 -2.3 0 0
02:25 1020 30.12 849 25.07 -15.4 4.3 74 -19 -2.1 0 0
02:26 1020 30.12 849 25.07 -15.4 4.3 78 -18.5 -1.3 0 0
02:27 1020 30.12 849 25.07 -15.2 4.7 74 -18.9 -2 0 0
02:28 1020 30.12 849 25.07 -15.4 4.2 70 -19.8 -3.6 0 0
02:29 1020 30.12 849 25.07 -16 3.2 70 -20.3 -4.5 0 0
02:30 1020 30.12 849 25.07 -16.5 2.3 75 -20 -4 0 0
02:31 1020 30.12 849 25.07 -16.1 3.1 81 -18.6 -1.5 0 0
02:32 1020 30.12 849 25.07 -15.6 4 74 -19.2 -2.5 0 0
02:33 1020 30.12 849 25.07 -15.6 3.9 73 -19.3 -2.8 0 0
02:34 1020 30.12 849 25.07 -15.6 4 76 -19 -2.1 0 0
02:35 1020 30.12 849 25.07 -15.3 4.5 76 -18.6 -1.5 0 0
02:36 1020 30.12 849 25.07 -15.1 4.8 75 -18.6 -1.6 0 0
02:37 1020 30.12 849 25.07 -15.1 4.9 71 -19.2 -2.6 0 0
02:38 1020 30.12 849 25.07 -15.2 4.6 75 -18.8 -1.8 0 0
02:39 1020 30.12 849 25.07 -15.4 4.2 71 -19.6 -3.4 0 0
02:40 1020 30.12 849 25.07 -15.6 3.9 76 -19 -2.2 0 0
02:41 1020 30.12 849 25.07 -15.6 3.9 75 -19.1 -2.3 0 0
02:42 1020 30.12 849 25.07 -15.6 4 76 -18.9 -2.1 0 0
02:43 1020 30.12 849 25.07 -15.5 4.2 77 -18.6 -1.5 0 0
02:44 1020 30.12 849 25.07 -15.3 4.5 77 -18.5 -1.3 0 0
02:45 1020 30.12 849 25.07 -15.1 4.8 76 -18.4 -1.2 0 0
02:46 1020 30.12 849 25.07 -15 5 75 -18.6 -1.4 0 0
02:47 1020 30.12 849 25.07 -15.1 4.9 74 -18.8 -1.8 0 0
02:48 1020 30.12 849 25.07 -15.2 4.6 74 -18.9 -2 0 0
02:49 1020 30.12 849 25.07 -15.5 4.1 72 -19.4 -2.9 0 0
02:50 1020 30.12 849 25.07 -15.8 3.5 73 -19.5 -3.2 0 0
02:51 1020 30.12 849 25.07 -16 3.2 74 -19.6 -3.2 0 0
02:52 1020 30.12 849 25.07 -16.2 2.9 75 -19.6 -3.3 0 0
02:53 1020 30.12 849 25.07 -16.3 2.7 76 -19.7 -3.4 0 0
02:54 1020 30.12 849 25.07 -16.4 2.4 77 -19.7 -3.4 0 0
02:55 1020 30.12 849 25.07 -16.6 2.2 74 -20.2 -4.3 0 0
02:56 1020 30.12 849 25.07 -16.7 1.9 80 -19.5 -3 0 0
02:57 1020 30.12 849 25.07 -16.5 2.3 81 -19 -2.1 0 0
02:58 1020 30.12 849 25.07 -16.2 2.9 82 -18.6 -1.4 0 0
02:59 1020 30.12 849 25.07 -15.9 3.4 81 -18.5 -1.2 0 0
03:00 1020 30.12 849 25.07 -15.8 3.6 79 -18.7 -1.6 0 0
03:01 1020 30.12 849 25.07 -15.8 3.6 78 -18.8 -1.8 0 0
03:02 1020 30.12 849 25.07 -15.8 3.7 78 -18.7 -1.7 0 0
03:03 1020 30.12 849 25.07 -15.8 3.6 74 -19.5 -3.1 0 0
03:04 1020 30.12 849 25.07 -16.5 2.3 69 -21 -5.7 0 0
03:05 1020 30.12 849 25.07 -17.3 0.9 70 -21.5 -6.7 0 0
03:06 1020 30.12 849 25.07 -17.9 -0.2 74 -21.5 -6.7 0 0
03:07 1020 30.12 849 25.07 -18.1 -0.7 77 -21.3 -6.3 0 0
03:08 1020 30.12 849 25.07 -18.3 -0.9 78 -21.3 -6.3 0 0
03:09 1020 30.12 849 25.07 -18.3 -0.9 80 -21 -5.8 0 0
03:10 1020 30.12 849 25.07 -18 -0.5 81 -20.6 -5 0 0
03:11 1020 30.12 849 25.07 -18 -0.5 79 -20.9 -5.6 0 0
03:12 1020 30.12 849 25.07 -18.2 -0.7 77 -21.2 -6.1 0 0
03:13 1020 30.12 849 25.07 -18.5 -1.3 74 -22 -7.7 0 0
03:14 1020 30.12 849 25.07 -18.9 -1.9 77 -21.9 -7.5 0 0
03:15 1020 30.12 849 25.07 -18.8 -1.8 82 -21.1 -5.9 0 0
03:16 1020 30.12 849 25.07 -18.5 -1.2 86 -20.3 -4.5 0 0
03:17 1020 30.12 849 25.07 -17.7 0.2 86 -19.5 -3.2 0 0
03:18 1020 30.12 849 25.07 -17.2 1.1 80 -19.8 -3.6 0 0
03:19 1020 30.12 849 25.07 -17 1.4 78 -19.9 -3.9 0 0
03:20 1020 30.12 849 25.07 -16.9 1.5 80 -19.7 -3.4 0 0
03:21 1020 30.12 849 25.07 -16.8 1.8 80 -19.4 -2.9 0 0
03:22 1020 30.12 849 25.07 -16.8 1.8 75 -20.2 -4.3 0 0
03:23 1020 30.12 849 25.07 -16.9 1.6 76 -20.2 -4.3 0 0
03:24 1020 30.12 849 25.07 -16.8 1.7 79 -19.6 -3.3 0 0
03:25 1020 30.12 849 25.07 -16.8 1.7 73 -20.6 -5.1 0 0
03:26 1020 30.12 849 25.07 -17.3 0.8 73 -21.2 -6.1 0 0
03:27 1020 30.12 849 25.07 -17.7 0.1 74 -21.3 -6.4 0 0
03:28 1019 30.09 849 25.07 -18 -0.4 76 -21.2 -6.2 0 0
03:29 1020 30.12 849 25.07 -18.1 -0.5 78 -21 -5.8 0 0
03:30 1020 30.12 849 25.07 -18 -0.5 79 -20.9 -5.6 0 0
03:31 1020 30.12 849 25.07 -18.1 -0.5 80 -20.8 -5.5 0 0
03:32 1019 30.09 849 25.07 -17.8 -0 82 -20.1 -4.2 0 0
03:33 1019 30.09 849 25.07 -17.2 1 82 -19.6 -3.2 0 0
03:34 1019 30.09 849 25.07 -16.7 2 81 -19.3 -2.7 0 0
03:35 1019 30.09 849 25.07 -16.4 2.5 76 -19.6 -3.4 0 0
03:36 1019 30.09 849 25.07 -16.2 2.8 80 -19 -2.1 0 0
03:37 1019 30.09 849 25.07 -15.6 3.9 79 -18.5 -1.3 0 0
03:38 1019 30.09 849 25.07 -15.4 4.2 74 -19.1 -2.4 0 0
03:39 1019 30.09 849 25.07 -15.4 4.4 77 -18.6 -1.5 0 0
03:40 1019 30.09 849 25.07 -15.1 4.9 78 -18 -0.5 0 0
03:41 1019 30.09 849 25.07 -14.5 5.9 77 -17.8 0 0 0
03:42 1019 30.09 849 25.07 -14.1 6.5 73 -18 -0.3 0 0
03:43 1019 30.09 849 25.07 -14.4 6 68 -19 -2.2 0 0
03:44 1019 30.09 849 25.07 -14.9 5.1 65 -20.1 -4.2 0 0
03:45 1019 30.09 849 25.07 -15.7 3.8 69 -20.1 -4.1 0 0
03:46 1019 30.09 849 25.07 -16.1 3 74 -19.7 -3.5 0 0
03:47 1019 30.09 849 25.07 -16.1 3 77 -19.3 -2.7 0 0
03:48 1019 30.09 849 25.07 -16 3.3 77 -19.2 -2.5 0 0
03:49 1019 30.09 849 25.07 -15.9 3.5 81 -18.5 -1.2 0 0
03:50 1019 30.09 848 25.04 -15.6 3.9 79 -18.5 -1.3 0 0
03:51 1019 30.09 848 25.04 -15.5 4.1 78 -18.5 -1.3 0 0
03:52 1019 30.09 848 25.04 -15.5 4.2 79 -18.4 -1 0 0
03:53 1019 30.09 848 25.04 -15.4 4.4 78 -18.4 -1.2 0 0
03:54 1019 30.09 848 25.04 -15.6 4 76 -18.9 -2 0 0
03:55 1019 30.09 848 25.04 -15.5 4.1 80 -18.2 -0.8 0 0
03:56 1019 30.09 848 25.04 -15.4 4.2 75 -19 -2.1 0 0
03:57 1019 30.09 848 25.04 -15.7 3.7 78 -18.8 -1.8 0 0
03:58 1019 30.09 848 25.04 -15.5 4.1 79 -18.3 -1 0 0
03:59 1019 30.09 848 25.04 -15.3 4.4 73 -19.1 -2.4 0 0
04:00 1019 30.09 848 25.04 -15.7 3.7 74 -19.4 -2.8 0 0
04:01 1019 30.09 848 25.04 -16 3.2 76 -19.3 -2.7 0 0
04:02 1019 30.09 848 25.04 -16 3.2 75 -19.4 -3 0 0
04:03 1019 30.09 848 25.04 -16.2 2.8 78 -19.3 -2.7 0 0
04:04 1019 30.09 848 25.04 -16.2 2.9 76 -19.4 -3 0 0
04:05 1019 30.09 848 25.04 -16.3 2.7 78 -19.3 -2.7 0 0
04:06 1019 30.09 848 25.04 -15.9 3.3 83 -18.2 -0.8 0 0
04:07 1019 30.09 848 25.04 -15.5 4.2 80 -18.2 -0.8 0 0
04:08 1019 30.09 848 25.04 -15.4 4.2 76 -18.7 -1.7 0 0
04:09 1019 30.09 848 25.04 -15.4 4.3 79 -18.3 -0.9 0 0
04:10 1019 30.09 848 25.04 -15.3 4.4 72 -19.3 -2.7 0 0
04:11 1019 30.09 848 25.04 -15.7 3.7 72 -19.6 -3.4 0 0
04:12 1019 30.09 848 25.04 -16.1 2.9 76 -19.4 -2.9 0 0
04:13 1019 30.09 848 25.04 -16.2 2.8 77 -19.4 -2.9 0 0
04:14 1019 30.09 848 25.04 -16.4 2.5 75 -19.8 -3.7 0 0
04:15 1019 30.09 848 25.04 -16.7 2 76 -20 -4 0 0
04:16 1019 30.09 848 25.04 -16.7 2 81 -19.2 -2.5 0 0
04:17 1019 30.09 848 25.04 -16.3 2.7 83 -18.5 -1.4 0 0
04:18 1019 30.09 848 25.04 -15.8 3.6 80 -18.5 -1.3 0 0
04:19 1019 30.09 848 25.04 -15.8 3.6 76 -19 -2.3 0 0
04:20 1019 30.09 848 25.04 -15.9 3.5 79 -18.7 -1.7 0 0
04:21 1019 30.09 848 25.04 -15.7 3.8 82 -18.1 -0.6 0 0
04:22 1019 30.09 848 25.04 -15.2 4.6 84 -17.4 0.7 0 0
04:23 1019 30.09 848 25.04 -14.7 5.6 82 -17.1 1.1 0 0
04:24 1019 30.09 848 25.04 -14.2 6.5 80 -16.9 1.6 0 0
04:25 1019 30.09 848 25.04 -13.8 7.1 76 -17.1 1.2 0 0
04:26 1019 30.09 848 25.04 -13.7 7.3 76 -17.1 1.1 0 0
04:27 1019 30.09 848 25.04 -13.6 7.5 75 -17.1 1.3 0 0
04:28 1019 30.09 848 25.04 -13.5 7.8 74 -17.2 1 0 0
04:29 1019 30.09 848 25.04 -13.4 7.8 72 -17.4 0.7 0 0
04:30 1019 30.09 848 25.04 -14.1 6.7 66 -19.2 -2.6 0 0
04:31 1019 30.09 848 25.04 -14.9 5.2 73 -18.7 -1.6 0 0
04:32 1019 30.09 848 25.04 -15 5.1 77 -18.1 -0.6 0 0
04:33 1019 30.09 848 25.04 -15 4.9 67 -19.8 -3.6 0 0
04:34 1019 30.09 848 25.04 -15.7 3.8 73 -19.5 -3.2 0 0
04:35 1019 30.09 848 25.04 -15.7 3.7 82 -18.1 -0.6 0 0
04:36 1019 30.09 848 25.04 -15.2 4.7 83 -17.5 0.6 0 0
04:37 1019 30.09 848 25.04 -14.7 5.6 78 -17.7 0.1 0 0
04:38 1019 30.09 848 25.04 -15.1 4.9 67 -19.9 -3.9 0 0
04:39 1019 30.09 848 25.04 -15.5 4 81 -18.2 -0.7 0 0
04:40 1019 30.09 848 25.04 -15.2 4.6 80 -17.9 -0.1 0 0
04:41 1019 30.09 848 25.04 -14.8 5.3 79 -17.6 0.3 0 0
04:42 1019 30.09 848 25.04 -14.7 5.5 68 -19.4 -2.9 0 0
04:43 1019 30.09 848 25.04 -15.3 4.4 72 -19.3 -2.7 0 0
04:44 1019 30.09 848 25.04 -15.9 3.5 76 -19.2 -2.5 0 0
04:45 1019 30.09 848 25.04 -15.7 3.7 81 -18.3 -0.9 0 0
04:46 1019 30.09 848 25.04 -15.6 3.9 78 -18.6 -1.4 0 0
04:47 1019 30.09 848 25.04 -15.4 4.3 80 -18 -0.5 0 0
04:48 1019 30.09 848 25.04 -15.2 4.6 76 -18.6 -1.4 0 0
04:49 1019 30.09 848 25.04 -15.3 4.4 77 -18.4 -1.2 0 0
04:50 1019 30.09 848 25.04 -15.2 4.6 79 -18.2 -0.7 0 0
04:51 1019 30.09 848 25.04 -15.1 4.9 79 -18 -0.3 0 0
04:52 1019 30.09 848 25.04 -15 4.9 79 -17.9 -0.3 0 0
04:53 1019 30.09 848 25.04 -14.9 5.3 78 -17.9 -0.3 0 0
04:54 1019 30.09 848 25.04 -15 5.1 72 -18.9 -2 0 0
04:55 1019 30.09 848 25.04 -15.4 4.3 69 -19.9 -3.8 0 0
04:56 1019 30.09 848 25.04 -15.8 3.6 79 -18.7 -1.6 0 0
04:57 1019 30.09 848 25.04 -15.6 4 80 -18.2 -0.8 0 0
04:58 1019 30.09 848 25.04 -15.3 4.5 75 -18.8 -1.8 0 0
04:59 1019 30.09 848 25.04 -15.6 3.9 67 -20.3 -4.6 0 0
05:00 1019 30.09 848 25.04 -16.4 2.5 70 -20.7 -5.3 0 0
05:01 1019 30.09 848 25.04 -17 1.5 73 -20.8 -5.4 0 0
05:02 1019 30.09 848 25.04 -17 1.4 82 -19.4 -3 0 0
05:03 1019 30.09 848 25.04 -16.6 2.1 81 -19.2 -2.6 0 0
05:04 1019 30.09 848 25.04 -16.3 2.6 78 -19.4 -2.9 0 0
05:05 1019 30.09 848 25.04 -16.3 2.6 77 -19.5 -3.2 0 0
05:06 1019 30.09 848 25.04 -16.4 2.5 77 -19.6 -3.2 0 0
05:07 1019 30.09 848 25.04 -16.4 2.5 77 -19.6 -3.2 0 0
05:08 1019 30.09 848 25.04 -16.5 2.4 76 -19.8 -3.6 0 0
05:09 1019 30.09 848 25.04 -16.7 2 74 -20.3 -4.6 0 0
05:10 1019 30.09 848 25.04 -17 1.5 74 -20.5 -5 0 0
05:11 1019 30.09 848 25.04 -17.2 1.1 75 -20.6 -5 0 0
05:12 1019 30.09 848 25.04 -17.3 0.9 77 -20.5 -4.8 0 0
05:13 1019 30.09 848 25.04 -17.3 0.9 79 -20.1 -4.2 0 0
05:14 1019 30.09 848 25.04 -17.2 1.1 78 -20.2 -4.4 0 0
05:15 1019 30.09 848 25.04 -17.3 0.9 74 -21 -5.7 0 0
05:16 1019 30.09 848 25.04 -17.9 -0.2 70 -22.1 -7.8 0 0
05:17 1019 30.09 848 25.04 -18.5 -1.4 76 -21.7 -7.1 0 0
05:18 1019 30.09 848 25.04 -18.4 -1 82 -20.7 -5.3 0 0
05:19 1019 30.09 848 25.04 -18.1 -0.6 81 -20.7 -5.2 0 0
05:20 1019 30.09 848 25.04 -17.9 -0.3 80 -20.6 -5 0 0
05:21 1019 30.09 848 25.04 -17.7 0.1 81 -20.2 -4.4 0 0
05:22 1019 30.09 848 25.04 -17.5 0.6 81 -19.9 -3.9 0 0
05:23 1019 30.09 848 25.04 -17.2 1.1 81 -19.7 -3.5 0 0
05:24 1019 30.09 848 25.04 -17 1.5 79 -19.8 -3.6 0 0
05:25 1019 30.09 848 25.04 -16.9 1.6 78 -19.9 -3.8 0 0
05:26 1019 30.09 848 25.04 -16.8 1.7 77 -20 -4 0 0
05:27 1019 30.09 848 25.04 -16.9 1.6 78 -19.9 -3.8 0 0
05:28 1019 30.09 848 25.04 -16.8 1.8 78 -19.8 -3.6 0 0
05:29 1019 30.09 848 25.04 -16.7 2 77 -19.8 -3.7 0 0
05:30 1019 30.09 848 25.04 -16.6 2.1 78 -19.6 -3.4 0 0
05:31 1019 30.09 848 25.04 -16.5 2.3 75 -19.9 -3.8 0 0
05:32 1019 30.09 848 25.04 -16.8 1.8 73 -20.6 -5 0 0
05:33 1019 30.09 848 25.04 -17 1.4 79 -19.8 -3.6 0 0
05:34 1019 30.09 848 25.04 -16.7 2 82 -19.1 -2.3 0 0
05:35 1019 30.09 848 25.04 -16.3 2.7 80 -19 -2.3 0 0
05:36 1019 30.09 848 25.04 -16.1 3.1 80 -18.7 -1.7 0 0
05:37 1019 30.09 848 25.04 -15.6 4 80 -18.3 -1 0 0
05:38 1019 30.09 848 25.04 -15.2 4.6 76 -18.5 -1.3 0 0
05:39 1019 30.09 848 25.04 -15 5 75 -18.5 -1.2 0 0
05:40 1019 30.09 848 25.04 -14.8 5.3 73 -18.6 -1.6 0 0
05:41 1019 30.09 848 25.04 -14.8 5.4 74 -18.5 -1.3 0 0
05:42 1019 30.09 848 25.04 -14.5 5.8 71 -18.7 -1.7 0 0
05:43 1019 30.09 848 25.04 -14.3 6.2 73 -18.2 -0.7 0 0
05:44 1019 30.09 848 25.04 -13.7 7.3 69 -18.3 -1 0 0
05:45 1019 30.09 848 25.04 -13.5 7.8 67 -18.3 -1 0 0
05:46 1019 30.09 848 25.04 -13.4 7.9 68 -18.2 -0.8 0 0
05:47 1019 30.09 848 25.04 -13.2 8.2 67 -18.1 -0.7 0 0
05:48 1019 30.09 848 25.04 -13.1 8.5 66 -18.2 -0.8 0 0
05:49 1019 30.09 848 25.04 -13.1 8.4 64 -18.5 -1.3 0 0
05:50 1019 30.09 848 25.04 -13.3 8 64 -18.8 -1.8 0 0
05:51 1019 30.09 848 25.04 -13.7 7.4 64 -19 -2.2 0 0
05:52 1019 30.09 848 25.04 -14 6.7 65 -19.2 -2.5 0 0
05:53 1019 30.09 848 25.04 -14.4 6.1 66 -19.4 -2.9 0 0
05:54 1019 30.09 848 25.04 -14.8 5.4 66 -19.9 -3.8 0 0
05:55 1019 30.09 848 25.04 -15.3 4.4 68 -19.9 -3.9 0 0
05:56 1019 30.09 848 25.04 -15.6 3.8 72 -19.6 -3.2 0 0
05:57 1019 30.09 848 25.04 -15.6 3.9 74 -19.2 -2.5 0 0
05:58 1019 30.09 848 25.04 -15.4 4.3 74 -19.1 -2.4 0 0
05:59 1019 30.09 848 25.04 -15.2 4.6 74 -18.9 -1.9 0 0
06:00 1019 30.09 848 25.04 -14.9 5.2 73 -18.7 -1.7 0 0
06:01 1019 30.09 848 25.04 -14.5 6 72 -18.5 -1.2 0 0
06:02 1019 30.09 848 25.04 -14 6.8 70 -18.4 -1 0 0
06:03 1019 30.09 848 25.04 -13.6 7.6 68 -18.3 -0.9 0 0
06:04 1019 30.09 848 25.04 -13.3 8 67 -18.2 -0.8 0 0
06:05 1019 30.09 848 25.04 -13.3 8.2 67 -18.2 -0.8 0 0
06:06 1019 30.09 848 25.04 -13.2 8.3 65 -18.4 -1.1 0 0
06:07 1019 30.09 848 25.04 -13.3 8.1 65 -18.6 -1.4 0 0
06:08 1019 30.09 848 25.04 -13.6 7.6 65 -18.8 -1.8 0 0
06:09 1019 30.09 848 25.04 -13.8 7.1 67 -18.7 -1.7 0 0
06:10 1019 30.09 848 25.04 -14 6.7 68 -18.8 -1.8 0 0
06:11 1019 30.09 848 25.04 -14.3 6.3 68 -18.9 -2.1 0 0
06:12 1019 30.09 848 25.04 -14.4 6 70 -18.8 -1.9 0 0
06:13 1019 30.09 848 25.04 -14.2 6.4 70 -18.5 -1.4 0 0
06:14 1019 30.09 848 25.04 -13.8 7.2 69 -18.3 -1 0 0
06:15 1019 30.09 848 25.04 -13.4 7.9 67 -18.2 -0.8 0 0
06:16 1019 30.09 848 25.04 -13.2 8.3 66 -18.2 -0.7 0 0
06:17 1019 30.09 848 25.04 -13.1 8.4 66 -18.3 -0.9 0 0
06:18 1019 30.09 848 25.04 -13.2 8.3 66 -18.3 -0.9 0 0
06:19 1019 30.09 848 25.04 -13.2 8.3 67 -18.1 -0.6 0 0
06:20 1019 30.09 848 25.04 -13.1 8.5 67 -18 -0.4 0 0
06:21 1019 30.09 848 25.04 -13 8.7 66 -18.1 -0.6 0 0
06:22 1019 30.09 848 25.04 -13.1 8.4 66 -18.1 -0.7 0 0
06:23 1019 30.09 848 25.04 -13.4 8 66 -18.3 -1 0 0
06:24 1019 30.09 848 25.04 -13.7 7.4 68 -18.4 -1.2 0 0
06:25 1019 30.09 848 25.04 -13.9 7 68 -18.6 -1.5 0 0
06:26 1019 30.09 848 25.04 -13.9 6.9 69 -18.5 -1.4 0 0
06:27 1019 30.09 848 25.04 -14 6.9 68 -18.7 -1.6 0 0
06:28 1019 30.09 848 25.04 -13.9 7 68 -18.6 -1.5 0 0
06:29 1019 30.09 848 25.04 -13.9 7 68 -18.6 -1.6 0 0
06:30 1019 30.09 848 25.04 -13.9 7.1 67 -18.7 -1.6 0 0
06:31 1019 30.09 848 25.04 -13.9 7 68 -18.6 -1.5 0 0
06:32 1019 30.09 848 25.04 -13.9 7.1 67 -18.7 -1.6 0 0
06:33 1019 30.09 848 25.04 -13.8 7.1 67 -18.6 -1.6 0 0
06:34 1019 30.09 848 25.04 -13.8 7.2 68 -18.5 -1.4 0 0
06:35 1019 30.09 848 25.04 -13.7 7.3 67 -18.5 -1.4 0 0
06:36 1019 30.09 848 25.04 -13.8 7.3 67 -18.7 -1.6 0 0
06:37 1019 30.09 848 25.04 -13.9 7 68 -18.7 -1.6 0 0
06:38 1019 30.09 848 25.04 -14 6.9 68 -18.7 -1.6 0 0
06:39 1019 30.09 848 25.04 -14.1 6.7 68 -18.7 -1.7 0 0
06:40 1019 30.09 848 25.04 -14.2 6.5 68 -18.8 -1.9 0 0
06:41 1019 30.09 848 25.04 -14.3 6.2 68 -19 -2.1 0 0
06:42 1019 30.09 848 25.04 -14.5 5.8 68 -19.3 -2.7 0 0
06:43 1019 30.09 848 25.04 -14.8 5.4 68 -19.3 -2.8 0 0
06:44 1019 30.09 848 25.04 -15.1 4.9 68 -19.7 -3.4 0 0
06:45 1019 30.09 848 25.04 -15.4 4.2 70 -19.7 -3.4 0 0
06:46 1019 30.09 848 25.04 -15.7 3.8 70 -20 -4 0 0
06:47 1019 30.09 848 25.04 -16 3.3 71 -20.1 -4.1 0 0
06:48 1019 30.09 848 25.04 -16.3 2.7 71 -20.3 -4.6 0 0
06:49 1019 30.09 848 25.04 -16.6 2.2 76 -19.9 -3.8 0 0
06:50 1019 30.09 848 25.04 -16.5 2.4 77 -19.6 -3.3 0 0
06:51 1019 30.09 848 25.04 -16.3 2.6 77 -19.5 -3.2 0 0
06:52 1019 30.09 848 25.04 -16.1 3 78 -19.1 -2.4 0 0
06:53 1019 30.09 848 25.04 -15.9 3.3 78 -19 -2.2 0 0
06:54 1019 30.09 848 25.04 -15.7 3.7 77 -18.9 -2 0 0
06:55 1019 30.09 848 25.04 -15.6 3.9 76 -19 -2.1 0 0
06:56 1019 30.09 848 25.04 -15.6 4 74 -19.2 -2.5 0 0
06:57 1019 30.09 848 25.04 -15.8 3.7 75 -19.2 -2.6 0 0
06:58 1019 30.09 848 25.04 -15.8 3.7 76 -19 -2.2 0 0
06:59 1019 30.09 848 25.04 -15.7 3.7 71 -19.8 -3.7 0 0
07:00 1019 30.09 848 25.04 -16 3.2 74 -19.7 -3.4 0 0
07:01 1019 30.09 848 25.04 -16.2 2.9 75 -19.7 -3.4 0 0
07:02 1019 30.09 848 25.04 -16.4 2.5 75 -19.9 -3.8 0 0
07:03 1019 30.09 848 25.04 -16.5 2.2 77 -19.6 -3.3 0 0
07:04 1019 30.09 848 25.04 -16.4 2.4 79 -19.2 -2.6 0 0
07:05 1019 30.09 848 25.04 -16.2 2.9 80 -18.9 -2.1 0 0
07:06 1019 30.09 848 25.04 -16.1 2.9 76 -19.4 -2.9 0 0
07:07 1019 30.09 848 25.04 -16.3 2.8 77 -19.3 -2.8 0 0
07:08 1019 30.09 848 25.04 -16.4 2.6 74 -20 -4 0 0
07:09 1019 30.09 848 25.04 -16.6 2.1 74 -20.2 -4.4 0 0
07:10 1019 30.09 848 25.04 -17.1 1.2 70 -21.3 -6.4 0 0
07:11 1019 30.09 848 25.04 -17.9 -0.2 68 -22.5 -8.5 0 0
07:12 1019 30.09 848 25.04 -18.5 -1.2 75 -21.8 -7.3 0 0
07:13 1019 30.09 848 25.04 -18.3 -1 80 -21.1 -5.9 0 0
07:14 1019 30.09 848 25.04 -18.3 -0.9 82 -20.6 -5.1 0 0
07:15 1019 30.09 848 25.04 -17.9 -0.2 87 -19.6 -3.2 0 0
07:16 1019 30.09 848 25.04 -17.2 1 87 -18.9 -2 0 0
07:17 1019 30.09 848 25.04 -16.6 2 86 -18.5 -1.2 0 0
07:18 1019 30.09 848 25.04 -16.2 2.9 86 -18 -0.5 0 0
07:19 1019 30.09 848 25.04 -15.7 3.8 83 -17.9 -0.2 0 0
07:20 1019 30.09 848 25.04 -15.6 4 78 -18.6 -1.5 0 0
07:21 1019 30.09 848 25.04 -15.5 4 80 -18.2 -0.7 0 0
07:22 1019 30.09 848 25.04 -15.5 4.1 76 -18.8 -1.8 0 0
07:23 1019 30.09 848 25.04 -16.3 2.7 65 -21.5 -6.6 0 0
07:24 1019 30.09 848 25.04 -17.2 1 71 -21.3 -6.3 0 0
07:25 1019 30.09 848 25.04 -18 -0.3 70 -22.3 -8.1 0 0
07:26 1019 30.09 848 25.04 -18.6 -1.4 75 -22 -7.7 0 0
07:27 1019 30.09 848 25.04 -18.8 -1.9 76 -22 -7.7 0 0
07:28 1019 30.09 848 25.04 -19.1 -2.4 74 -22.7 -8.9 0 0
07:29 1019 30.09 848 25.04 -19.3 -2.8 80 -22 -7.6 0 0
07:30 1019 30.09 848 25.04 -18.8 -1.9 85 -20.8 -5.5 0 0
07:31 1019 30.09 848 25.04 -18.3 -1 84 -20.4 -4.7 0 0
07:32 1019 30.09 848 25.04 -18.1 -0.5 82 -20.5 -4.9 0 0
07:33 1019 30.09 848 25.04 -17.9 -0.3 81 -20.4 -4.8 0 0
07:34 1019 30.09 848 25.04 -17.8 0.1 82 -20.1 -4.2 0 0
07:35 1019 30.09 848 25.04 -17.7 0.1 80 -20.4 -4.7 0 0
07:36 1019 30.09 848 25.04 -17.9 -0.3 80 -20.6 -5.1 0 0
07:37 1019 30.09 848 25.04 -17.7 0.2 85 -19.6 -3.4 0 0
07:38 1019 30.09 848 25.04 -17.2 1 85 -19.2 -2.5 0 0
07:39 1019 30.09 848 25.04 -16.9 1.6 84 -18.9 -2.1 0 0
07:40 1019 30.09 848 25.04 -16.8 1.8 79 -19.6 -3.3 0 0
07:41 1019 30.09 848 25.04 -16.8 1.8 83 -19 -2.2 0 0
07:42 1019 30.09 848 25.04 -16.5 2.2 82 -19 -2.2 0 0
07:43 1019 30.09 848 25.04 -16.6 2 79 -19.5 -3 0 0
07:44 1019 30.09 848 25.04 -16.8 1.8 78 -19.8 -3.6 0 0
07:45 1019 30.09 848 25.04 -17 1.5 80 -19.7 -3.5 0 0
07:46 1019 30.09 848 25.04 -17 1.5 82 -19.4 -2.9 0 0
07:47 1019 30.09 848 25.04 -16.9 1.6 81 -19.4 -3 0 0
07:48 1019 30.09 848 25.04 -17 1.5 78 -19.9 -3.9 0 0
07:49 1019 30.09 848 25.04 -17.3 0.8 78 -20.2 -4.4 0 0
07:50 1019 30.09 848 25.04 -17.3 0.9 83 -19.5 -3.2 0 0
07:51 1019 30.09 848 25.04 -17 1.3 84 -19.1 -2.4 0 0
07:52 1019 30.09 848 25.04 -16.7 1.9 84 -18.9 -1.9 0 0
07:53 1019 30.09 848 25.04 -16.8 1.8 77 -19.9 -3.8 0 0
07:54 1019 30.09 848 25.04 -17 1.3 80 -19.8 -3.6 0 0
07:55 1019 30.09 848 25.04 -17 1.4 83 -19.3 -2.7 0 0
07:56 1019 30.09 848 25.04 -16.8 1.7 84 -19 -2.2 0 0
07:57 1019 30.09 848 25.04 -16.7 2 82 -19 -2.3 0 0
07:58 1019 30.09 848 25.04 -16.4 2.5 86 -18.3 -0.9 0 0
07:59 1019 30.09 848 25.04 -15.7 3.8 88 -17.2 1 0 0
08:00 1019 30.09 848 25.04 -14.9 5.3 86 -16.7 1.9 0 0
08:01 1019 30.09 848 25.04 -14.3 6.2 82 -16.7 1.9 0 0
08:02 1019 30.09 848 25.04 -14 6.8 80 -16.8 1.8 0 0
08:03 1019 30.09 848 25.04 -13.9 7.1 69 -18.3 -1 0 0
08:04 1019 30.09 848 25.04 -14.5 6 68 -19.1 -2.4 0 0
08:05 1019 30.09 848 25.04 -15.3 4.4 71 -19.4 -3 0 0
08:06 1019 30.09 848 25.04 -15.8 3.5 74 -19.4 -3 0 0
08:07 1019 30.09 848 25.04 -16.2 2.9 77 -19.3 -2.8 0 0
08:08 1019 30.09 848 25.04 -16.2 2.9 79 -19 -2.2 0 0
08:09 1019 30.09 848 25.04 -16.1 3 78 -19.1 -2.4 0 0
08:10 1019 30.09 848 25.04 -16 3.1 79 -18.9 -2.1 0 0
08:11 1019 30.09 848 25.04 -16 3.2 79 -18.9 -2 0 0
08:12 1019 30.09 848 25.04 -15.9 3.4 77 -19 -2.2 0 0
08:13 1019 30.09 848 25.04 -15.9 3.4 79 -18.8 -1.9 0 0
08:14 1019 30.09 848 25.04 -15.9 3.4 77 -19 -2.2 0 0
08:15 1019 30.09 849 25.07 -15.8 3.5 78 -18.8 -1.9 0 0
08:16 1019 30.09 848 25.04 -15.7 3.7 78 -18.8 -1.8 0 0
08:17 1019 30.09 848 25.04 -15.6 3.9 78 -18.6 -1.5 0 0
08:18 1019 30.09 848 25.04 -15.5 4.1 76 -18.9 -2 0 0
08:19 1019 30.09 848 25.04 -15.5 4.1 78 -18.6 -1.4 0 0
08:20 1019 30.09 848 25.04 -15.5 4 74 -19.2 -2.5 0 0
08:21 1019 30.09 848 25.04 -15.7 3.7 75 -19.2 -2.6 0 0
08:22 1019 30.09 849 25.07 -15.9 3.5 76 -19.1 -2.4 0 0
08:23 1019 30.09 848 25.04 -15.9 3.4 77 -19.1 -2.4 0 0
08:24 1019 30.09 848 25.04 -15.9 3.4 77 -19 -2.3 0 0
08:25 1019 30.09 848 25.04 -15.9 3.5 78 -18.9 -2.1 0 0
08:26 1019 30.09 848 25.04 -15.7 3.7 78 -18.8 -1.8 0 0
08:27 1019 30.09 848 25.04 -15.6 3.9 78 -18.7 -1.7 0 0
08:28 1019 30.09 848 25.04 -15.5 4 77 -18.7 -1.7 0 0
08:29 1019 30.09 848 25.04 -15.6 3.9 75 -19.1 -2.3 0 0
08:30 1019 30.09 848 25.04 -15.7 3.8 77 -18.8 -1.9 0 0
08:31 1019 30.09 849 25.07 -15.6 3.9 79 -18.5 -1.2 0 0
08:32 1019 30.09 849 25.07 -15.4 4.3 80 -18.2 -0.7 0 0
08:33 1019 30.09 849 25.07 -15.1 4.9 79 -17.9 -0.3 0 0
08:34 1019 30.09 849 25.07 -14.9 5.3 77 -18 -0.4 0 0
08:35 1019 30.09 849 25.07 -14.7 5.5 78 -17.7 0.1 0 0
08:36 1019 30.09 849 25.07 -14.5 5.9 76 -17.8 -0.1 0 0
08:37 1019 30.09 849 25.07 -14.4 6.1 77 -17.6 0.3 0 0
08:38 1019 30.09 849 25.07 -14.2 6.4 75 -17.7 0.1 0 0
08:39 1019 30.09 849 25.07 -14.2 6.4 74 -17.9 -0.3 0 0
08:40 1019 30.09 849 25.07 -14.4 6.2 75 -17.9 -0.2 0 0
08:41 1019 30.09 849 25.07 -14.5 6 76 -17.8 -0 0 0
08:42 1019 30.09 849 25.07 -14.4 6 77 -17.7 0.2 0 0
08:43 1019 30.09 849 25.07 -14.3 6.2 76 -17.6 0.2 0 0
08:44 1019 30.09 849 25.07 -14.2 6.4 76 -17.6 0.4 0 0
08:45 1019 30.09 849 25.07 -14.1 6.7 76 -17.5 0.6 0 0
08:46 1019 30.09 849 25.07 -14 6.8 76 -17.4 0.8 0 0
08:47 1019 30.09 849 25.07 -13.8 7.2 75 -17.3 0.9 0 0
08:48 1019 30.09 849 25.07 -13.6 7.5 74 -17.2 1 0 0
08:49 1019 30.09 849 25.07 -13.4 7.8 73 -17.2 1 0 0
08:50 1019 30.09 849 25.07 -13.3 8 73 -17.2 1 0 0
08:51 1019 30.09 849 25.07 -13.1 8.5 71 -17.4 0.8 0 0
08:52 1019 30.09 849 25.07 -12.8 9.1 69 -17.3 0.9 0 0
08:53 1019 30.09 849 25.07 -12.6 9.4 69 -17.2 1.1 0 0
08:54 1019 30.09 849 25.07 -12.5 9.6 69 -17.1 1.2 0 0
08:55 1019 30.09 849 25.07 -12.4 9.6 69 -17 1.4 0 0
08:56 1019 30.09 849 25.07 -12.4 9.7 69 -16.9 1.5 0 0
08:57 1019 30.09 849 25.07 -12.2 10.1 66 -17.3 0.8 0 0
08:58 1019 30.09 849 25.07 -12 10.4 64 -17.4 0.6 0 0
08:59 1019 30.09 849 25.07 -11.8 10.7 64 -17.3 0.9 0 0
09:00 1019 30.09 849 25.07 -11.7 11 64 -17.3 0.9 0 0
09:01 1019 30.09 849 25.07 -11.6 11.2 64 -17 1.4 0 0
09:02 1019 30.09 849 25.07 -11.4 11.4 64 -17 1.4 0 0
09:03 1019 30.09 849 25.07 -11.5 11.4 64 -17 1.5 0 0
09:04 1019 30.09 849 25.07 -11.6 11.1 66 -16.7 2 0 0
09:05 1019 30.09 849 25.07 -11.7 10.9 67 -16.6 2.1 0 0
09:06 1019 30.09 849 25.07 -11.8 10.8 67 -16.7 2 0 0
09:07 1019 30.09 849 25.07 -12 10.5 67 -16.9 1.5 0 0
09:08 1019 30.09 849 25.07 -12 10.3 68 -16.8 1.8 0 0
09:09 1019 30.09 849 25.07 -12.1 10.2 68 -16.8 1.7 0 0
09:10 1019 30.09 849 25.07 -12.2 10.1 69 -16.7 1.9 0 0
09:11 1019 30.09 849 25.07 -12.2 10.1 70 -16.6 2.1 0 0
09:12 1019 30.09 849 25.07 -12 10.4 69 -16.6 2.1 0 0
09:13 1019 30.09 849 25.07 -11.8 10.7 67 -16.8 1.7 0 0
09:14 1019 30.09 849 25.07 -11.8 10.7 67 -16.9 1.7 0 0
09:15 1019 30.09 849 25.07 -11.9 10.6 67 -16.9 1.6 0 0
09:16 1019 30.09 849 25.07 -12 10.4 69 -16.6 2 0 0
09:17 1019 30.09 849 25.07 -12.1 10.3 69 -16.6 2 0 0
09:18 1019 30.09 849 25.07 -12.1 10.3 70 -16.4 2.4 0 0
09:19 1019 30.09 849 25.07 -12.1 10.3 69 -16.6 2.1 0 0
09:20 1019 30.09 849 25.07 -11.9 10.5 69 -16.5 2.3 0 0
09:21 1019 30.09 849 25.07 -11.8 10.7 69 -16.4 2.4 0 0
09:22 1019 30.09 849 25.07 -11.7 10.9 68 -16.4 2.4 0 0
09:23 1019 30.09 849 25.07 -11.6 11.1 69 -16.3 2.7 0 0
09:24 1019 30.09 849 25.07 -11.5 11.4 68 -16.3 2.6 0 0
09:25 1019 30.09 849 25.07 -11.4 11.5 67 -16.3 2.6 0 0
09:26 1019 30.09 849 25.07 -11.3 11.7 66 -16.4 2.5 0 0
09:27 1019 30.09 849 25.07 -11.3 11.6 66 -16.6 2.2 0 0
09:28 1019 30.09 849 25.07 -11.3 11.6 67 -16.3 2.6 0 0
09:29 1019 30.09 849 25.07 -11.4 11.5 68 -16.2 2.9 0 0
09:30 1019 30.09 849 25.07 -11.4 11.5 69 -16.1 3.1 0 0
09:31 1019 30.09 849 25.07 -11.3 11.7 69 -15.8 3.5 0 0
09:32 1019 30.09 849 25.07 -11.2 11.9 69 -15.8 3.6 0 0
09:33 1019 30.09 849 25.07 -11 12.2 68 -15.8 3.6 0 0
09:34 1019 30.09 849 25.07 -10.9 12.4 67 -15.8 3.5 0 0
09:35 1019 30.09 849 25.07 -10.9 12.4 67 -15.8 3.6 0 0
09:36 1019 30.09 849 25.07 -10.8 12.5 67 -15.7 3.7 0 0
09:37 1020 30.12 849 25.07 -10.8 12.7 67 -15.7 3.7 0 0
09:38 1020 30.12 849 25.07 -10.6 12.9 67 -15.7 3.8 0 0
09:39 1020 30.12 849 25.07 -10.4 13.2 66 -15.5 4 0 0
09:40 1020 30.12 849 25.07 -10.3 13.4 66 -15.5 4.2 0 0
09:41 1019 30.09 849 25.07 -10.2 13.6 65 -15.6 4 0 0
09:42 1020 30.12 849 25.07 -10.2 13.6 66 -15.5 4.1 0 0
09:43 1020 30.12 849 25.07 -10.1 13.8 65 -15.5 4.1 0 0
09:44 1020 30.12 849 25.07 -10 14 65 -15.5 4.1 0 0
09:45 1020 30.12 849 25.07 -9.9 14.1 64 -15.4 4.2 0 0
09:46 1020 30.12 849 25.07 -9.9 14.2 65 -15.3 4.4 0 0
09:47 1020 30.12 849 25.07 -9.8 14.4 64 -15.3 4.4 0 0
09:48 1020 30.12 849 25.07 -9.7 14.5 64 -15.4 4.3 0 0
09:49 1020 30.12 849 25.07 -9.7 14.5 64 -15.3 4.4 0 0
09:50 1020 30.12 849 25.07 -9.8 14.4 64 -15.3 4.4 0 0
09:51 1020 30.12 849 25.07 -9.8 14.4 64 -15.4 4.4 0 0
09:52 1020 30.12 849 25.07 -9.8 14.4 64 -15.3 4.4 0 0
09:53 1020 30.12 849 25.07 -9.7 14.6 64 -15.2 4.7 0 0
09:54 1020 30.12 849 25.07 -9.5 14.9 64 -15.2 4.7 0 0
09:55 1020 30.12 849 25.07 -9.4 15 63 -15.3 4.4 0 0
09:56 1020 30.12 849 25.07 -9.5 14.9 62 -15.4 4.2 0 0
09:57 1020 30.12 849 25.07 -9.5 14.8 62 -15.5 4.2 0 0
09:58 1020 30.12 849 25.07 -9.5 14.9 63 -15.4 4.3 0 0
09:59 1020 30.12 849 25.07 -9.5 14.8 63 -15.4 4.3 0 0
10:00 1020 30.12 849 25.07 -9.6 14.8 63 -15.4 4.3 0 0
10:01 1020 30.12 849 25.07 -9.6 14.7 63 -15.3 4.5 0 0
10:02 1020 30.12 849 25.07 -9.5 15 63 -15.2 4.6 0 0
10:03 1020 30.12 849 25.07 -9.3 15.3 63 -15.1 4.8 0 0
10:04 1020 30.12 849 25.07 -9.3 15.3 64 -14.9 5.1 0 0
10:05 1020 30.12 849 25.07 -9.4 15 62 -15.3 4.4 0 0
10:06 1020 30.12 849 25.07 -9.5 14.9 63 -15.2 4.6 0 0
10:07 1020 30.12 849 25.07 -9.4 15.1 62 -15.4 4.3 0 0
10:08 1020 30.12 849 25.07 -9.3 15.3 62 -15.4 4.3 0 0
10:09 1020 30.12 849 25.07 -9.2 15.4 60 -15.6 3.8 0 0
10:10 1020 30.12 849 25.07 -9.2 15.5 62 -15.2 4.6 0 0
10:11 1020 30.12 849 25.07 -9.1 15.7 62 -15 5 0 0
10:12 1020 30.12 849 25.07 -9 15.7 63 -14.9 5.1 0 0
10:13 1020 30.12 849 25.07 -9 15.8 62 -14.9 5.1 0 0
10:14 1020 30.12 849 25.07 -9 15.8 64 -14.6 5.6 0 0
10:15 1020 30.12 849 25.07 -9 15.8 61 -15.1 4.8 0 0
10:16 1020 30.12 849 25.07 -9.1 15.7 61 -15.3 4.5 0 0
10:17 1020 30.12 849 25.07 -9.1 15.5 63 -15 4.9 0 0
10:18 1020 30.12 849 25.07 -9.2 15.5 62 -15.2 4.6 0 0
10:19 1020 30.12 849 25.07 -9.2 15.4 63 -15.1 4.8 0 0
10:20 1020 30.12 849 25.07 -9.3 15.4 64 -14.9 5.1 0 0
10:21 1020 30.12 849 25.07 -9.3 15.3 65 -14.8 5.4 0 0
10:22 1020 30.12 849 25.07 -9.3 15.3 63 -15.1 4.7 0 0
10:23 1020 30.12 849 25.07 -9.3 15.3 62 -15.3 4.5 0 0
10:24 1020 30.12 849 25.07 -9.3 15.3 62 -15.4 4.3 0 0
10:25 1020 30.12 849 25.07 -9.3 15.3 62 -15.3 4.5 0 0
10:26 1020 30.12 849 25.07 -9.3 15.3 61 -15.5 4.1 0 0
10:27 1020 30.12 849 25.07 -9.3 15.3 63 -15.1 4.9 0 0
10:28 1020 30.12 849 25.07 -9.3 15.3 62 -15.3 4.4 0 0
10:29 1020 30.12 849 25.07 -9.2 15.4 63 -15.1 4.8 0 0
10:30 1020 30.12 849 25.07 -9.2 15.4 62 -15.2 4.6 0 0
10:31 1020 30.12 849 25.07 -9.2 15.4 62 -15.2 4.6 0 0
10:32 1020 30.12 849 25.07 -9.2 15.5 62 -15.3 4.5 0 0
10:33 1020 30.12 849 25.07 -9.2 15.4 62 -15.2 4.6 0 0
10:34 1020 30.12 849 25.07 -9.2 15.5 63 -15 4.9 0 0
10:35 1020 30.12 849 25.07 -9.2 15.5 63 -15.1 4.9 0 0
10:36 1020 30.12 849 25.07 -9.1 15.6 62 -15.1 4.8 0 0
10:37 1020 30.12 849 25.07 -9.1 15.7 62 -15.1 4.8 0 0
10:38 1020 30.12 849 25.07 -9 15.8 63 -14.7 5.5 0 0
10:39 1020 30.12 849 25.07 -9 15.9 64 -14.7 5.6 0 0
10:40 1020 30.12 849 25.07 -8.9 16 63 -14.8 5.4 0 0
10:41 1020 30.12 849 25.07 -8.8 16.1 63 -14.7 5.6 0 0
10:42 1020 30.12 849 25.07 -8.7 16.3 63 -14.5 5.9 0 0
10:43 1020 30.12 849 25.07 -8.6 16.6 62 -14.6 5.6 0 0
10:44 1020 30.12 849 25.07 -8.5 16.8 60 -14.8 5.3 0 0
10:45 1020 30.12 849 25.07 -8.4 17 61 -14.6 5.8 0 0
10:46 1020 30.12 849 25.07 -8.2 17.2 62 -14.3 6.2 0 0
10:47 1020 30.12 849 25.07 -8.1 17.5 62 -14.2 6.4 0 0
10:48 1020 30.12 849 25.07 -8 17.7 61 -14.1 6.6 0 0
10:49 1020 30.12 849 25.07 -7.9 17.8 60 -14.4 6.1 0 0
10:50 1020 30.12 849 25.07 -7.8 17.9 61 -14 6.8 0 0
10:51 1020 30.12 849 25.07 -7.7 18.1 61 -14.1 6.7 0 0
10:52 1020 30.12 849 25.07 -7.7 18.2 60 -14.2 6.5 0 0
10:53 1020 30.12 849 25.07 -7.6 18.3 62 -13.8 7.2 0 0
10:54 1020 30.12 849 25.07 -7.6 18.4 60 -14.1 6.6 0 0
10:55 1020 30.12 849 25.07 -7.5 18.4 58 -14.4 6.1 0 0
10:56 1020 30.12 849 25.07 -7.5 18.5 59 -14.1 6.6 0 0
10:57 1020 30.12 849 25.07 -7.5 18.5 57 -14.5 5.9 0 0
10:58 1020 30.12 849 25.07 -7.4 18.6 61 -13.7 7.3 0 0
10:59 1020 30.12 849 25.07 -7.4 18.6 58 -14.2 6.4 0 0
11:00 1020 30.12 849 25.07 -7.4 18.7 59 -14.1 6.6 0 0
11:01 1020 30.12 849 25.07 -7.4 18.7 58 -14.3 6.2 0 0
11:02 1020 30.12 849 25.07 -7.4 18.8 59 -14 6.8 0 0
11:03 1020 30.12 849 25.07 -7.3 18.8 57 -14.4 6.1 0 0
11:04 1020 30.12 849 25.07 -7.3 18.8 58 -14.3 6.3 0 0
11:05 1020 30.12 849 25.07 -7.3 18.9 59 -13.9 6.9 0 0
11:06 1020 30.12 849 25.07 -7.2 19 59 -13.9 6.9 0 0
11:07 1020 30.12 849 25.07 -7.2 19.1 59 -13.8 7.1 0 0
11:08 1020 30.12 849 25.07 -7.1 19.2 58 -14 6.9 0 0
11:09 1020 30.12 849 25.07 -7.1 19.3 57 -14.3 6.3 0 0
11:10 1020 30.12 849 25.07 -7.1 19.3 55 -14.6 5.7 0 0
11:11 1020 30.12 849 25.07 -7.1 19.3 55 -14.6 5.7 0 0
11:12 1020 30.12 849 25.07 -7.1 19.3 55 -14.6 5.7 0 0
11:13 1020 30.12 849 25.07 -7.1 19.3 58 -14 6.8 0 0
11:14 1020 30.12 849 25.07 -7 19.4 56 -14.4 6.1 0 0
11:15 1020 30.12 849 25.07 -7 19.5 57 -14.1 6.6 0 0
11:16 1020 30.12 849 25.07 -7 19.5 58 -13.9 7 0 0
11:17 1020 30.12 849 25.07 -6.9 19.6 60 -13.4 7.9 0 0
11:18 1020 30.12 849 25.07 -6.9 19.6 59 -13.7 7.4 0 0
11:19 1020 30.12 849 25.07 -6.9 19.6 57 -14 6.8 0 0
11:20 1020 30.12 849 25.07 -6.9 19.6 58 -13.7 7.3 0 0
11:21 1020 30.12 849 25.07 -6.9 19.6 59 -13.7 7.3 0 0
11:22 1020 30.12 849 25.07 -6.9 19.6 57 -14 6.8 0 0
11:23 1020 30.12 849 25.07 -6.9 19.6 59 -13.6 7.5 0 0
11:24 1020 30.12 849 25.07 -6.9 19.5 57 -14 6.8 0 0
11:25 1020 30.12 849 25.07 -6.9 19.6 59 -13.7 7.3 0 0
11:26 1020 30.12 849 25.07 -6.9 19.6 58 -13.7 7.3 0 0
11:27 1020 30.12 849 25.07 -6.9 19.6 59 -13.6 7.5 0 0
11:28 1020 30.12 849 25.07 -6.8 19.7 59 -13.6 7.5 0 0
11:29 1020 30.12 849 25.07 -6.7 19.9 59 -13.6 7.6 0 0
11:30 1020 30.12 849 25.07 -6.8 19.8 58 -13.7 7.3 0 0
11:31 1020 30.12 849 25.07 -6.7 20 58 -13.6 7.5 0 0
11:32 1020 30.12 849 25.07 -6.7 20 58 -13.6 7.5 0 0
11:33 1020 30.12 849 25.07 -6.7 19.9 60 -13.3 8 0 0
11:34 1020 30.12 849 25.07 -6.7 20 59 -13.3 8 0 0
11:35 1020 30.12 849 25.07 -6.6 20.1 58 -13.5 7.8 0 0
11:36 1020 30.12 849 25.07 -6.5 20.3 58 -13.4 7.9 0 0
11:37 1020 30.12 849 25.07 -6.4 20.5 58 -13.5 7.8 0 0
11:38 1020 30.12 849 25.07 -6.3 20.6 58 -13.3 8.1 0 0
11:39 1020 30.12 849 25.07 -6.3 20.7 57 -13.4 7.9 0 0
11:40 1020 30.12 849 25.07 -6.2 20.8 59 -12.9 8.8 0 0
11:41 1020 30.12 849 25.07 -6.2 20.9 57 -13.3 8 0 0
11:42 1020 30.12 849 25.07 -6.3 20.7 57 -13.4 7.9 0 0
11:43 1020 30.12 849 25.07 -6.3 20.6 58 -13.3 8.1 0 0
11:44 1020 30.12 849 25.07 -6.4 20.5 59 -13.2 8.3 0 0
11:45 1020 30.12 849 25.07 -6.4 20.5 57 -13.5 7.7 0 0
11:46 1019 30.09 849 25.07 -6.4 20.4 57 -13.7 7.3 0 0
11:47 1019 30.09 849 25.07 -6.4 20.4 58 -13.4 7.8 0 0
11:48 1019 30.09 849 25.07 -6.3 20.6 57 -13.5 7.7 0 0
11:49 1019 30.09 849 25.07 -6.2 20.9 55 -13.8 7.1 0 0
11:50 1019 30.09 849 25.07 -6.1 21.1 56 -13.4 7.8 0 0
11:51 1019 30.09 849 25.07 -5.9 21.5 54 -13.7 7.3 0 0
11:52 1019 30.09 849 25.07 -5.7 21.7 53 -13.8 7.2 0 0
11:53 1019 30.09 849 25.07 -5.6 21.9 53 -13.6 7.4 0 0
11:54 1019 30.09 849 25.07 -5.5 22 53 -13.6 7.5 0 0
11:55 1019 30.09 849 25.07 -5.4 22.3 52 -13.7 7.4 0 0
11:56 1019 30.09 848 25.04 -5.3 22.5 52 -13.6 7.5 0 0
11:57 1019 30.09 848 25.04 -5.2 22.6 52 -13.7 7.4 0 0
11:58 1019 30.09 848 25.04 -5.3 22.5 52 -13.6 7.5 0 0
11:59 1019 30.09 848 25.04 -5.4 22.3 52 -13.9 7 0 0
12:00 1019 30.09 848 25.04 -5.5 22.1 54 -13.5 7.7 0 0
12:01 1019 30.09 848 25.04 -5.5 22.1 55 -13.1 8.4 .2 0.008
12:02 1019 30.09 848 25.04 -5.5 22.1 53 -13.5 7.6 0 0
12:03 1019 30.09 848 25.04 -5.4 22.2 55 -13.2 8.3 0 0
12:04 1019 30.09 848 25.04 -5.4 22.3 54 -13.3 8.1 0 0
12:05 1019 30.09 848 25.04 -5.3 22.4 53 -13.6 7.6 0 0
12:06 1019 30.09 848 25.04 -5.4 22.3 53 -13.7 7.4 0 0
12:07 1019 30.09 848 25.04 -5.4 22.3 53 -13.5 7.8 0 0
12:08 1019 30.09 848 25.04 -5.5 22.1 54 -13.5 7.7 0 0
12:09 1019 30.09 848 25.04 -5.7 21.7 55 -13.5 7.7 0 0
12:10 1019 30.09 848 25.04 -5.9 21.3 55 -13.5 7.6 0 0
12:11 1019 30.09 848 25.04 -6 21.2 57 -13.3 8.1 0 0
12:12 1019 30.09 848 25.04 -6.1 21 55 -13.7 7.4 0 0
12:13 1019 30.09 848 25.04 -6.1 21 55 -13.8 7.2 0 0
12:14 1019 30.09 848 25.04 -6.1 21 55 -13.6 7.5 0 0
12:15 1019 30.09 848 25.04 -6 21.2 56 -13.5 7.6 0 0
12:16 1019 30.09 848 25.04 -5.9 21.4 55 -13.5 7.7 0 0
12:17 1019 30.09 848 25.04 -5.7 21.8 53 -13.7 7.4 0 0
12:18 1019 30.09 848 25.04 -5.4 22.2 54 -13.4 7.8 0 0
12:19 1019 30.09 848 25.04 -5.4 22.3 53 -13.5 7.8 0 0
12:20 1019 30.09 848 25.04 -5.6 22 53 -13.8 7.2 0 0
12:21 1019 30.09 848 25.04 -5.8 21.6 54 -13.5 7.6 0 0
12:22 1019 30.09 848 25.04 -6 21.3 56 -13.4 7.9 0 0
12:23 1019 30.09 848 25.04 -6 21.2 55 -13.7 7.4 0 0
12:24 1019 30.09 848 25.04 -6 21.1 57 -13.2 8.2 0 0
12:25 1019 30.09 848 25.04 -6 21.1 56 -13.5 7.7 0 0
12:26 1019 30.09 848 25.04 -6 21.2 55 -13.6 7.5 0 0
12:27 1019 30.09 848 25.04 -6 21.3 55 -13.7 7.4 0 0
12:28 1019 30.09 848 25.04 -5.9 21.4 55 -13.6 7.6 0 0
12:29 1019 30.09 848 25.04 -5.7 21.8 55 -13.4 8 0 0
12:30 1019 30.09 848 25.04 -5.5 22 54 -13.5 7.7 0 0
12:31 1019 30.09 848 25.04 -5.3 22.4 53 -13.4 7.9 0 0
12:32 1019 30.09 848 25.04 -5.3 22.5 54 -13.2 8.2 0 0
12:33 1019 30.09 848 25.04 -5.1 22.7 53 -13.3 8 0 0
12:34 1019 30.09 848 25.04 -5 23 53 -13.2 8.3 0 0
12:35 1019 30.09 848 25.04 -4.9 23.2 52 -13.4 7.9 0 0
12:36 1019 30.09 848 25.04 -4.8 23.3 53 -13.1 8.4 0 0
12:37 1019 30.09 848 25.04 -4.8 23.4 53 -13.1 8.5 0 0
12:38 1019 30.09 848 25.04 -4.8 23.4 53 -12.9 8.8 0 0
12:39 1019 30.09 848 25.04 -4.9 23.2 54 -12.8 9 0 0
12:40 1019 30.09 848 25.04 -5 23.1 56 -12.5 9.5 0 0
12:41 1019 30.09 848 25.04 -5 22.9 56 -12.6 9.3 0 0
12:42 1019 30.09 848 25.04 -5 22.9 55 -12.7 9.1 0 0
12:43 1019 30.09 848 25.04 -5 23 54 -12.9 8.7 0 0
12:44 1019 30.09 848 25.04 -5 23.1 54 -12.8 8.9 0 0
12:45 1019 30.09 848 25.04 -4.8 23.3 55 -12.6 9.3 0 0
12:46 1019 30.09 848 25.04 -4.8 23.3 54 -12.8 9 0 0
12:47 1019 30.09 848 25.04 -4.8 23.4 55 -12.5 9.4 0 0
12:48 1019 30.09 848 25.04 -4.8 23.4 55 -12.6 9.4 0 0
12:49 1019 30.09 848 25.04 -4.9 23.3 54 -12.9 8.8 0 0
12:50 1019 30.09 848 25.04 -4.9 23.2 56 -12.4 9.7 0 0
12:51 1019 30.09 848 25.04 -4.9 23.2 54 -12.7 9.1 0 0
12:52 1019 30.09 848 25.04 -4.9 23.2 54 -12.9 8.9 0 0
12:53 1019 30.09 848 25.04 -4.9 23.3 53 -13 8.6 0 0
12:54 1019 30.09 848 25.04 -5 23.1 56 -12.4 9.7 0 0
12:55 1019 30.09 848 25.04 -5 23 55 -12.8 9 0 0
12:56 1019 30.09 848 25.04 -5.1 22.8 59 -11.9 10.6 0 0
12:57 1019 30.09 848 25.04 -5.3 22.5 58 -12.3 9.8 0 0
12:58 1019 30.09 848 25.04 -5.5 22.2 57 -12.6 9.3 0 0
12:59 1019 30.09 848 25.04 -5.6 22 59 -12.4 9.7 0 0
13:00 1019 30.09 848 25.04 -5.6 21.8 59 -12.4 9.7 0 0
13:01 1019 30.09 848 25.04 -5.7 21.8 60 -12.3 9.9 0 0
13:02 1019 30.09 848 25.04 -5.7 21.8 61 -12.1 10.3 0 0
13:03 1019 30.09 848 25.04 -5.7 21.8 58 -12.7 9.2 0 0
13:04 1019 30.09 848 25.04 -5.7 21.7 59 -12.6 9.4 0 0
13:05 1019 30.09 848 25.04 -5.8 21.6 61 -12.1 10.2 0 0
13:06 1019 30.09 848 25.04 -5.8 21.6 61 -12.1 10.2 0 0
13:07 1019 30.09 848 25.04 -5.8 21.6 60 -12.4 9.7 0 0
13:08 1019 30.09 848 25.04 -5.8 21.6 59 -12.6 9.3 0 0
13:09 1019 30.09 848 25.04 -5.7 21.7 58 -12.7 9.1 0 0
13:10 1019 30.09 848 25.04 -5.7 21.7 58 -12.8 8.9 0 0
13:11 1019 30.09 848 25.04 -5.7 21.8 56 -13.1 8.4 0 0
13:12 1019 30.09 848 25.04 -5.6 21.9 57 -12.8 9 0 0
13:13 1019 30.09 848 25.04 -5.5 22.1 57 -12.8 9 0 0
13:14 1019 30.09 848 25.04 -5.4 22.3 56 -12.9 8.8 0 0
13:15 1019 30.09 848 25.04 -5.3 22.5 55 -12.9 8.8 0 0
13:16 1019 30.09 848 25.04 -5.3 22.5 56 -12.8 8.9 0 0
13:17 1019 30.09 848 25.04 -5.2 22.7 55 -12.9 8.7 0 0
13:18 1019 30.09 848 25.04 -5.1 22.8 56 -12.5 9.5 0 0
13:19 1019 30.09 848 25.04 -5 22.9 56 -12.5 9.5 0 0
13:20 1019 30.09 848 25.04 -5.1 22.9 55 -12.7 9.1 0 0
13:21 1019 30.09 848 25.04 -5.3 22.5 57 -12.6 9.3 0 0
13:22 1019 30.09 848 25.04 -5.3 22.5 56 -12.7 9.1 0 0
13:23 1019 30.09 848 25.04 -5.3 22.5 56 -12.8 8.9 0 0
13:24 1019 30.09 848 25.04 -5.2 22.6 57 -12.4 9.6 0 0
13:25 1019 30.09 848 25.04 -5.2 22.6 56 -12.6 9.4 0 0
13:26 1019 30.09 848 25.04 -5.1 22.8 56 -12.7 9.2 0 0
13:27 1019 30.09 848 25.04 -4.9 23.1 55 -12.6 9.3 0 0
13:28 1019 30.09 848 25.04 -4.7 23.5 55 -12.6 9.4 0 0
13:29 1019 30.09 848 25.04 -4.6 23.7 53 -12.7 9.1 0 0
13:30 1019 30.09 848 25.04 -4.6 23.8 54 -12.6 9.3 0 0
13:31 1019 30.09 848 25.04 -4.6 23.6 53 -12.9 8.8 0 0
13:32 1019 30.09 848 25.04 -4.7 23.5 55 -12.5 9.5 0 0
13:33 1019 30.09 848 25.04 -4.8 23.4 55 -12.6 9.3 0 0
13:34 1019 30.09 848 25.04 -4.9 23.3 54 -12.8 9 0 0
13:35 1019 30.09 848 25.04 -4.9 23.1 55 -12.7 9.1 0 0
13:36 1019 30.09 848 25.04 -4.9 23.1 55 -12.6 9.3 0 0
13:37 1019 30.09 848 25.04 -4.8 23.4 56 -12.2 10 0 0
13:38 1019 30.09 848 25.04 -4.7 23.6 54 -12.6 9.3 0 0
13:39 1019 30.09 848 25.04 -4.6 23.7 54 -12.5 9.6 0 0
13:40 1019 30.09 848 25.04 -4.7 23.6 56 -12.2 10 0 0
13:41 1019 30.09 848 25.04 -4.7 23.5 55 -12.6 9.4 0 0
13:42 1019 30.09 848 25.04 -4.8 23.3 56 -12.3 9.8 0 0
13:43 1019 30.09 848 25.04 -5 23.1 55 -12.7 9.2 0 0
13:44 1019 30.09 848 25.04 -4.9 23.1 58 -12.1 10.3 0 0
13:45 1019 30.09 848 25.04 -4.9 23.2 57 -12.2 10 0 0
13:46 1019 30.09 848 25.04 -4.8 23.3 56 -12.2 10 0 0
13:47 1019 30.09 848 25.04 -4.8 23.4 57 -12.2 10.1 0 0
13:48 1019 30.09 848 25.04 -4.8 23.4 57 -12 10.4 0 0
13:49 1019 30.09 848 25.04 -4.8 23.3 56 -12.4 9.7 0 0
13:50 1019 30.09 848 25.04 -4.9 23.3 58 -11.9 10.5 0 0
13:51 1019 30.09 848 25.04 -4.7 23.5 56 -12.1 10.2 0 0
13:52 1019 30.09 848 25.04 -4.6 23.7 58 -11.7 10.9 0 0
13:53 1019 30.09 848 25.04 -4.5 23.9 56 -11.9 10.5 0 0
13:54 1019 30.09 848 25.04 -4.5 23.9 57 -11.9 10.6 0 0
13:55 1019 30.09 848 25.04 -4.5 23.9 57 -11.7 10.9 0 0
13:56 1019 30.09 848 25.04 -4.5 23.8 58 -11.6 11 0 0
13:57 1019 30.09 848 25.04 -4.6 23.7 57 -11.8 10.8 0 0
13:58 1019 30.09 848 25.04 -4.6 23.7 58 -11.7 11 0 0
13:59 1019 30.09 848 25.04 -4.5 23.9 57 -11.9 10.7 0 0
14:00 1019 30.09 848 25.04 -4.4 24 57 -11.7 11 0 0
14:01 1019 30.09 848 25.04 -4.3 24.2 56 -11.9 10.5 0 0
14:02 1019 30.09 848 25.04 -4.2 24.4 56 -11.8 10.7 0 0
14:03 1019 30.09 848 25.04 -4.1 24.7 56 -11.7 11 0 0
14:04 1019 30.09 848 25.04 -4 24.9 56 -11.5 11.2 0 0
14:05 1019 30.09 848 25.04 -3.9 24.9 55 -11.8 10.8 0 0
14:06 1019 30.09 848 25.04 -4 24.8 55 -11.7 10.9 0 0
14:07 1019 30.09 848 25.04 -3.9 25 55 -11.7 10.9 0 0
14:08 1019 30.09 848 25.04 -3.7 25.3 54 -11.6 11.1 0 0
14:09 1019 30.09 848 25.04 -3.7 25.4 54 -11.7 10.9 0 0
14:10 1019 30.09 848 25.04 -3.7 25.3 54 -11.7 10.9 0 0
14:11 1019 30.09 848 25.04 -3.7 25.3 55 -11.4 11.4 0 0
14:12 1019 30.09 848 25.04 -3.9 25 55 -11.6 11.2 0 0
14:13 1019 30.09 848 25.04 -3.9 24.9 56 -11.5 11.3 0 0
14:14 1019 30.09 848 25.04 -3.9 24.9 58 -11.1 12 0 0
14:15 1019 30.09 848 25.04 -3.9 25.1 58 -10.9 12.3 0 0
14:16 1019 30.09 848 25.04 -3.7 25.3 59 -10.6 12.9 0 0
14:17 1019 30.09 848 25.04 -3.7 25.3 57 -10.9 12.3 0 0
14:18 1019 30.09 848 25.04 -3.7 25.4 60 -10.4 13.3 0 0
14:19 1019 30.09 848 25.04 -3.6 25.5 58 -10.8 12.5 0 0
14:20 1019 30.09 848 25.04 -3.5 25.6 59 -10.5 13.1 0 0
14:21 1019 30.09 848 25.04 -3.4 25.9 58 -10.5 13.1 0 0
14:22 1019 30.09 848 25.04 -3.3 26.1 57 -10.6 12.8 0 0
14:23 1019 30.09 848 25.04 -3.2 26.3 53 -11.5 11.2 0 0
14:24 1019 30.09 848 25.04 -3.1 26.5 54 -11.2 11.8 0 0
14:25 1019 30.09 848 25.04 -3 26.6 52 -11.5 11.4 0 0
14:26 1019 30.09 848 25.04 -3 26.6 46 -13.2 8.3 0 0
14:27 1019 30.09 848 25.04 -2.9 26.7 49 -12.3 9.8 0 0
14:28 1019 30.09 848 25.04 -2.9 26.8 48 -12.5 9.5 0 0
14:29 1019 30.09 848 25.04 -2.9 26.9 45 -13.2 8.2 0 0
14:30 1019 30.09 848 25.04 -2.8 27 47 -12.5 9.4 0 0
14:31 1019 30.09 848 25.04 -2.7 27.2 44 -13.4 7.8 0 0
14:32 1019 30.09 848 25.04 -2.4 27.6 45 -12.9 8.7 0 0
14:33 1019 30.09 848 25.04 -2.2 28 45 -12.7 9.1 0 0
14:34 1019 30.09 848 25.04 -2 28.4 43 -12.9 8.7 0 0
14:35 1019 30.09 848 25.04 -2 28.4 43 -12.9 8.7 0 0
14:36 1019 30.09 848 25.04 -2.1 28.3 42 -13.5 7.7 0 0
14:37 1019 30.09 848 25.04 -2 28.4 43 -13.1 8.4 0 0
14:38 1019 30.09 848 25.04 -1.7 29 42 -12.8 8.9 0 0
14:39 1019 30.09 848 25.04 -1.4 29.4 40 -13.4 7.9 0 0
14:40 1019 30.09 848 25.04 -1.4 29.5 40 -13.2 8.2 0 0
14:41 1019 30.09 848 25.04 -1.2 29.8 39 -13.4 7.8 0 0
14:42 1019 30.09 848 25.04 -1 30.1 39 -13.5 7.8 0 0
14:43 1019 30.09 848 25.04 -0.9 30.3 39 -13.1 8.4 0 0
14:44 1019 30.09 848 25.04 -0.8 30.6 39 -13.1 8.5 0 0
14:45 1019 30.09 848 25.04 -0.4 31.2 38 -13 8.6 0 0
14:46 1019 30.09 848 25.04 -0.2 31.7 37 -13.2 8.2 0 0
14:47 1019 30.09 848 25.04 0 32.1 36 -13.3 8 0 0
14:48 1019 30.09 848 25.04 0.6 33 35 -13.3 8 0 0
14:49 1019 30.09 848 25.04 1.2 34.1 33 -13.4 7.9 0 0
14:50 1019 30.09 848 25.04 1.6 34.9 32 -13.4 7.9 0 0
14:51 1019 30.09 848 25.04 1.9 35.4 32 -13.3 8.1 0 0
14:52 1019 30.09 848 25.04 2.2 35.9 31 -13.3 8 0 0
14:53 1019 30.09 848 25.04 2.4 36.4 30 -13.4 7.9 0 0
14:54 1019 30.09 848 25.04 2.5 36.5 31 -13.1 8.4 0 0
14:55 1019 30.09 848 25.04 2.5 36.4 31 -13.1 8.4 0 0
14:56 1019 30.09 848 25.04 2.3 36.2 32 -12.9 8.8 0 0
14:57 1019 30.09 848 25.04 1.9 35.4 31 -13.4 7.9 0 0
14:58 1019 30.09 848 25.04 1.3 34.4 33 -13.4 7.8 0 0
14:59 1019 30.09 848 25.04 1 33.8 34 -13.1 8.4 0 0
15:00 1019 30.09 848 25.04 0.9 33.7 33 -13.5 7.7 0 0
15:01 1019 30.09 848 25.04 1 33.7 35 -12.9 8.9 0 0
15:02 1019 30.09 848 25.04 1 33.9 33 -13.4 7.8 0 0
15:03 1019 30.09 848 25.04 1 33.9 35 -12.7 9.1 0 0
15:04 1019 30.09 848 25.04 1 33.7 36 -12.5 9.5 0 0
15:05 1019 30.09 848 25.04 0.7 33.3 36 -12.8 9 0 0
15:06 1019 30.09 848 25.04 0.6 33.1 36 -13 8.6 0 0
15:07 1019 30.09 848 25.04 0.4 32.8 37 -12.5 9.5 0 0
15:08 1019 30.09 848 25.04 0.1 32.2 37 -12.8 9 0 0
15:09 1019 30.09 848 25.04 -0.4 31.3 39 -12.6 9.3 0 0
15:10 1019 30.09 848 25.04 -0.9 30.4 41 -12.6 9.2 0 0
15:11 1019 30.09 848 25.04 -1.2 29.9 43 -12.2 10 0 0
15:12 1019 30.09 848 25.04 -1.5 29.4 43 -12.4 9.7 0 0
15:13 1019 30.09 848 25.04 -1.8 28.8 46 -11.9 10.5 0 0
15:14 1019 30.09 848 25.04 -2.1 28.2 47 -12 10.3 0 0
15:15 1019 30.09 848 25.04 -2.3 27.8 46 -12.4 9.7 0 0
15:16 1019 30.09 848 25.04 -2.5 27.5 47 -12.3 9.8 0 0
15:17 1019 30.09 848 25.04 -2.7 27.2 48 -12.3 9.9 0 0
15:18 1019 30.09 848 25.04 -2.8 26.9 49 -12.1 10.2 0 0
15:19 1019 30.09 848 25.04 -3 26.6 52 -11.5 11.3 0 0
15:20 1019 30.09 848 25.04 -3.2 26.2 52 -11.7 10.9 0 0
15:21 1019 30.09 848 25.04 -3.4 25.9 48 -12.9 8.9 0 0
15:22 1019 30.09 848 25.04 -3.5 25.6 49 -12.7 9.1 0 0
15:23 1019 30.09 848 25.04 -3.6 25.6 50 -12.6 9.4 0 0
15:24 1019 30.09 848 25.04 -3.6 25.5 50 -12.5 9.4 0 0
15:25 1019 30.09 848 25.04 -3.7 25.4 51 -12.5 9.5 0 0
15:26 1019 30.09 848 25.04 -3.8 25.2 51 -12.5 9.5 0 0
15:27 1019 30.09 848 25.04 -3.8 25.1 51 -12.6 9.3 0 0
15:28 1019 30.09 848 25.04 -3.9 25 50 -12.8 9 0 0
15:29 1019 30.09 848 25.04 -3.9 25 51 -12.6 9.3 0 0
15:30 1019 30.09 848 25.04 -3.9 25 52 -12.5 9.5 0 0
15:31 1019 30.09 848 25.04 -3.9 25 52 -12.3 9.9 0 0
15:32 1019 30.09 848 25.04 -3.9 25 52 -12.4 9.6 0 0
15:33 1019 30.09 848 25.04 -3.9 25.1 51 -12.5 9.5 0 0
15:34 1019 30.09 848 25.04 -3.8 25.1 49 -12.9 8.7 0 0
15:35 1019 30.09 848 25.04 -3.8 25.2 48 -13.3 8.1 0 0
15:36 1019 30.09 848 25.04 -3.7 25.4 50 -12.6 9.4 0 0
15:37 1019 30.09 848 25.04 -3.6 25.5 50 -12.6 9.2 0 0
15:38 1019 30.09 848 25.04 -3.5 25.6 49 -12.7 9.1 0 0
15:39 1019 30.09 848 25.04 -3.5 25.7 49 -12.7 9.1 0 0
15:40 1019 30.09 848 25.04 -3.5 25.7 48 -12.9 8.7 0 0
15:41 1019 30.09 848 25.04 -3.5 25.8 48 -13 8.6 0 0
15:42 1019 30.09 848 25.04 -3.4 25.9 47 -13.2 8.2 0 0
15:43 1019 30.09 848 25.04 -3.3 26.1 46 -13.3 8.1 0 0
15:44 1019 30.09 848 25.04 -3.2 26.2 46 -13.3 8.1 0 0
15:45 1019 30.09 848 25.04 -3.1 26.4 46 -13.3 8.1 0 0
15:46 1019 30.09 848 25.04 -3 26.5 46 -13.1 8.4 0 0
15:47 1019 30.09 848 25.04 -2.9 26.7 46 -13 8.6 0 0
15:48 1019 30.09 848 25.04 -2.9 26.8 47 -12.7 9.1 0 0
15:49 1019 30.09 848 25.04 -2.8 26.9 47 -12.6 9.3 0 0
15:50 1019 30.09 848 25.04 -2.8 27 47 -12.7 9.2 0 0
15:51 1019 30.09 848 25.04 -2.7 27.1 48 -12.3 9.9 0 0
15:52 1019 30.09 848 25.04 -2.7 27.1 46 -12.7 9.1 0 0
15:53 1019 30.09 848 25.04 -2.7 27.1 46 -12.7 9.1 0 0
15:54 1019 30.09 848 25.04 -2.7 27.2 47 -12.6 9.3 0 0
15:55 1019 30.09 848 25.04 -2.6 27.2 47 -12.5 9.5 0 0
15:56 1019 30.09 848 25.04 -2.6 27.4 46 -12.6 9.3 0 0
15:57 1019 30.09 848 25.04 -2.5 27.5 46 -12.6 9.3 0 0
15:58 1019 30.09 848 25.04 -2.3 27.8 46 -12.6 9.4 0 0
15:59 1019 30.09 848 25.04 -2.2 28 46 -12.4 9.7 0 0
16:00 1019 30.09 848 25.04 -2.2 28.1 44 -12.8 9 0 0
16:01 1019 30.09 848 25.04 -2.2 28 45 -12.7 9.2 0 0
16:02 1019 30.09 848 25.04 -2.3 27.9 45 -12.7 9.1 0 0
16:03 1019 30.09 848 25.04 -2.4 27.7 46 -12.6 9.3 0 0
16:04 1019 30.09 848 25.04 -2.6 27.4 46 -12.8 8.9 0 0
16:05 1019 30.09 848 25.04 -2.8 27 46 -12.9 8.8 0 0
16:06 1019 30.09 848 25.04 -3 26.6 46 -13.1 8.5 0 0
16:07 1019 30.09 848 25.04 -3.2 26.2 46 -13.2 8.3 0 0
16:08 1019 30.09 848 25.04 -3.3 26 48 -12.9 8.8 0 0
16:09 1019 30.09 848 25.04 -3.5 25.7 48 -13.1 8.4 0 0
16:10 1019 30.09 848 25.04 -3.6 25.6 48 -13.1 8.3 0 0
16:11 1019 30.09 848 25.04 -3.6 25.5 49 -12.8 8.9 0 0
16:12 1019 30.09 848 25.04 -3.7 25.3 49 -12.9 8.7 0 0
16:13 1019 30.09 848 25.04 -3.8 25.2 49 -13 8.6 0 0
16:14 1019 30.09 848 25.04 -3.8 25.2 48 -13.2 8.2 0 0
16:15 1019 30.09 848 25.04 -3.6 25.5 47 -13.3 8 0 0
16:16 1019 30.09 848 25.04 -3.5 25.7 47 -13.3 8 0 0
16:17 1019 30.09 848 25.04 -3.4 25.9 46 -13.3 8 0 0
16:18 1019 30.09 848 25.04 -3.3 26.1 47 -13.2 8.3 0 0
16:19 1019 30.09 848 25.04 -3.3 26.1 46 -13.2 8.2 0 0
16:20 1019 30.09 848 25.04 -3.2 26.2 46 -13.4 7.9 0 0
16:21 1019 30.09 848 25.04 -3.2 26.2 45 -13.4 7.9 0 0
16:22 1019 30.09 848 25.04 -3.2 26.3 45 -13.6 7.6 0 0
16:23 1019 30.09 848 25.04 -3.2 26.3 45 -13.5 7.7 0 0
16:24 1019 30.09 848 25.04 -3.2 26.3 45 -13.4 7.8 0 0
16:25 1019 30.09 848 25.04 -3.1 26.4 45 -13.4 7.9 0 0
16:26 1019 30.09 848 25.04 -3.1 26.4 45 -13.5 7.7 0 0
16:27 1019 30.09 848 25.04 -3.1 26.4 45 -13.4 7.9 0 0
16:28 1019 30.09 848 25.04 -3.1 26.5 45 -13.4 7.9 0 0
16:29 1019 30.09 848 25.04 -3.1 26.5 47 -12.8 8.9 0 0
16:30 1019 30.09 848 25.04 -3.1 26.5 48 -12.7 9.1 0 0
16:31 1019 30.09 848 25.04 -3.1 26.4 46 -13.1 8.5 0 0
16:32 1019 30.09 848 25.04 -3.2 26.3 46 -13.2 8.3 0 0
16:33 1019 30.09 848 25.04 -3.2 26.2 46 -13.2 8.3 0 0
16:34 1019 30.09 848 25.04 -3.3 26.1 46 -13.3 8.1 0 0
16:35 1019 30.09 848 25.04 -3.3 26 47 -13.1 8.5 0 0
16:36 1019 30.09 848 25.04 -3.4 25.9 47 -13.2 8.2 0 0
16:37 1019 30.09 848 25.04 -3.4 25.8 47 -13.3 8 0 0
16:38 1019 30.09 848 25.04 -3.5 25.8 46 -13.4 7.8 0 0
16:39 1019 30.09 848 25.04 -3.4 25.8 46 -13.4 8 0 0
16:40 1019 30.09 848 25.04 -3.4 25.9 47 -13.1 8.4 0 0
16:41 1019 30.09 848 25.04 -3.4 25.8 47 -13.2 8.3 0 0
16:42 1019 30.09 848 25.04 -3.6 25.5 48 -13 8.5 0 0
16:43 1019 30.09 848 25.04 -3.7 25.4 48 -13.1 8.3 0 0
16:44 1019 30.09 848 25.04 -3.7 25.3 49 -13.1 8.5 0 0
16:45 1019 30.09 848 25.04 -3.7 25.4 49 -12.9 8.7 0 0
16:46 1019 30.09 848 25.04 -3.8 25.2 49 -13.1 8.4 0 0
16:47 1019 30.09 848 25.04 -3.8 25.1 49 -13.1 8.4 0 0
16:48 1019 30.09 848 25.04 -3.9 25 50 -13 8.7 0 0
16:49 1019 30.09 848 25.04 -4 24.7 50 -13.1 8.5 0 0
16:50 1019 30.09 848 25.04 -4.3 24.3 51 -12.9 8.7 0 0
16:51 1019 30.09 848 25.04 -4.4 24 52 -12.9 8.8 0 0
16:52 1019 30.09 848 25.04 -4.5 23.9 52 -13 8.6 0 0
16:53 1019 30.09 848 25.04 -4.6 23.7 52 -13.1 8.5 0 0
16:54 1019 30.09 848 25.04 -4.6 23.6 53 -13 8.7 0 0
16:55 1019 30.09 848 25.04 -4.8 23.4 53 -13 8.7 0 0
16:56 1019 30.09 848 25.04 -4.8 23.4 53 -13 8.6 0 0
16:57 1019 30.09 848 25.04 -4.8 23.3 53 -12.9 8.8 0 0
16:58 1019 30.09 848 25.04 -4.8 23.3 54 -12.9 8.8 0 0
16:59 1019 30.09 848 25.04 -4.8 23.3 53 -13 8.7 0 0
17:00 1019 30.09 848 25.04 -4.8 23.3 53 -13 8.6 0 0
17:01 1019 30.09 848 25.04 -4.8 23.3 53 -13 8.5 0 0
17:02 1019 30.09 848 25.04 -4.8 23.4 53 -13 8.6 0 0
17:03 1019 30.09 848 25.04 -4.6 23.6 52 -13.1 8.5 0 0
17:04 1019 30.09 848 25.04 -4.5 23.9 51 -13.1 8.4 0 0
17:05 1019 30.09 848 25.04 -4.4 24.1 51 -13.2 8.3 0 0
17:06 1019 30.09 848 25.04 -4.3 24.3 50 -13.1 8.4 0 0
17:07 1019 30.09 848 25.04 -4.2 24.4 50 -13.2 8.3 0 0
17:08 1019 30.09 848 25.04 -4.2 24.5 50 -13.2 8.3 0 0
17:09 1019 30.09 848 25.04 -4.2 24.5 50 -13.2 8.2 0 0
17:10 1019 30.09 848 25.04 -4.3 24.3 50 -13.1 8.4 0 0
17:11 1019 30.09 848 25.04 -4.4 24.1 50 -13.3 8 0 0
17:12 1019 30.09 848 25.04 -4.5 23.9 50 -13.3 8.1 0 0
17:13 1019 30.09 848 25.04 -4.6 23.8 50 -13.5 7.7 0 0
17:14 1019 30.09 848 25.04 -4.5 23.8 50 -13.6 7.5 0 0
17:15 1019 30.09 848 25.04 -4.5 23.9 50 -13.6 7.6 0 0
17:16 1019 30.09 848 25.04 -4.5 23.9 50 -13.5 7.8 0 0
17:17 1019 30.09 848 25.04 -4.7 23.5 50 -13.6 7.5 0 0
17:18 1019 30.09 848 25.04 -4.9 23.2 50 -13.7 7.4 0 0
17:19 1019 30.09 848 25.04 -5.1 22.9 51 -13.7 7.3 0 0
17:20 1019 30.09 848 25.04 -5.2 22.7 52 -13.7 7.4 0 0
17:21 1019 30.09 848 25.04 -5.2 22.7 51 -13.7 7.3 0 0
17:22 1019 30.09 848 25.04 -5.2 22.7 51 -13.7 7.3 0 0
17:23 1019 30.09 848 25.04 -5.2 22.7 50 -14.1 6.7 0 0
17:24 1019 30.09 848 25.04 -5.2 22.6 50 -14.1 6.6 0 0
17:25 1019 30.09 848 25.04 -5.2 22.7 50 -14.1 6.6 0 0
17:26 1019 30.09 848 25.04 -5.2 22.7 50 -14.1 6.5 0 0
17:27 1019 30.09 848 25.04 -5.2 22.7 50 -14.1 6.6 0 0
17:28 1019 30.09 848 25.04 -5.2 22.7 50 -14.1 6.6 0 0
17:29 1019 30.09 848 25.04 -5.2 22.6 50 -14.1 6.6 0 0
17:30 1019 30.09 848 25.04 -5.3 22.5 50 -14.1 6.7 0 0
17:31 1019 30.09 848 25.04 -5.3 22.5 50 -14.1 6.6 0 0
17:32 1019 30.09 848 25.04 -5.4 22.3 51 -14.1 6.7 0 0
17:33 1019 30.09 848 25.04 -5.6 21.9 52 -13.9 6.9 0 0
17:34 1019 30.09 848 25.04 -5.7 21.7 53 -14 6.9 0 0
17:35 1019 30.09 848 25.04 -5.7 21.8 52 -14 6.9 0 0
17:36 1019 30.09 848 25.04 -5.6 21.9 52 -14 6.9 0 0
17:37 1019 30.09 848 25.04 -5.6 21.9 52 -14 6.9 0 0
17:38 1019 30.09 848 25.04 -5.7 21.8 52 -13.9 6.9 0 0
17:39 1019 30.09 848 25.04 -5.7 21.8 53 -13.9 6.9 0 0
17:40 1019 30.09 848 25.04 -5.7 21.7 52 -14 6.8 0 0
17:41 1019 30.09 848 25.04 -5.8 21.6 52 -14.1 6.7 0 0
17:42 1019 30.09 848 25.04 -6.1 21 54 -14.1 6.7 0 0
17:43 1019 30.09 848 25.04 -6.3 20.6 54 -14.2 6.5 0 0
17:44 1019 30.09 848 25.04 -6.6 20.1 53 -14.7 5.6 0 0
17:45 1019 30.09 848 25.04 -7.2 19.1 55 -14.7 5.6 0 0
17:46 1019 30.09 848 25.04 -7.6 18.3 57 -14.7 5.5 0 0
17:47 1019 30.09 848 25.04 -7.8 18 60 -14.3 6.3 0 0
17:48 1019 30.09 848 25.04 -7.6 18.4 59 -14.3 6.3 0 0
17:49 1019 30.09 848 25.04 -7.3 18.8 58 -14.2 6.5 0 0
17:50 1019 30.09 848 25.04 -7.1 19.2 57 -14.2 6.5 0 0
17:51 1019 30.09 848 25.04 -7.1 19.3 57 -14.3 6.3 0 0
17:52 1019 30.09 848 25.04 -7.2 19 57 -14.3 6.3 0 0
17:53 1019 30.09 848 25.04 -7.3 18.9 58 -14.1 6.6 0 0
17:54 1019 30.09 848 25.04 -7.1 19.2 57 -14.1 6.5 0 0
17:55 1019 30.09 848 25.04 -6.9 19.6 56 -14.2 6.4 0 0
17:56 1019 30.09 848 25.04 -6.9 19.6 56 -14.2 6.4 0 0
17:57 1019 30.09 848 25.04 -7 19.4 56 -14.3 6.2 0 0
17:58 1019 30.09 848 25.04 -7.2 19.1 57 -14.3 6.2 0 0
17:59 1019 30.09 848 25.04 -7.4 18.7 56 -14.8 5.3 0 0
18:00 1019 30.09 848 25.04 -7.9 17.9 56 -15.2 4.6 0 0
18:01 1019 30.09 848 25.04 -8.6 16.6 58 -15.3 4.4 0 0
18:02 1019 30.09 848 25.04 -9.2 15.5 60 -15.5 4.1 0 0
18:03 1019 30.09 848 25.04 -9.6 14.7 63 -15.5 4.1 0 0
18:04 1019 30.09 848 25.04 -9.9 14.1 64 -15.5 4.1 0 0
18:05 1019 30.09 848 25.04 -10.1 13.9 65 -15.4 4.3 0 0
18:06 1019 30.09 848 25.04 -10 14.1 65 -15.3 4.5 0 0
18:07 1019 30.09 848 25.04 -9.9 14.2 63 -15.8 3.6 0 0
18:08 1019 30.09 848 25.04 -10.1 13.7 66 -15.3 4.4 0 0
18:09 1019 30.09 848 25.04 -10 14.1 65 -15.3 4.4 0 0
18:10 1019 30.09 848 25.04 -9.8 14.4 65 -15.1 4.8 0 0
18:11 1019 30.09 848 25.04 -9.6 14.7 64 -15.2 4.7 0 0
18:12 1019 30.09 848 25.04 -9.5 14.9 63 -15.2 4.6 0 0
18:13 1019 30.09 848 25.04 -9.6 14.7 63 -15.3 4.4 0 0
18:14 1019 30.09 848 25.04 -9.6 14.7 65 -15.1 4.9 0 0
18:15 1019 30.09 848 25.04 -9.5 14.9 64 -15.1 4.8 0 0
18:16 1019 30.09 848 25.04 -9.6 14.8 64 -15.1 4.9 0 0
18:17 1019 30.09 848 25.04 -9.6 14.8 64 -15.2 4.6 0 0
18:18 1019 30.09 848 25.04 -9.6 14.7 65 -15.1 4.9 0 0
18:19 1019 30.09 848 25.04 -9.5 15 64 -15.1 4.9 0 0
18:20 1019 30.09 848 25.04 -9.4 15.1 63 -15.2 4.7 0 0
18:21 1019 30.09 848 25.04 -9.5 15 63 -15.3 4.5 0 0
18:22 1019 30.09 848 25.04 -9.7 14.6 64 -15.2 4.6 0 0
18:23 1019 30.09 848 25.04 -9.8 14.4 65 -15.2 4.7 0 0
18:24 1019 30.09 848 25.04 -9.6 14.8 67 -14.7 5.6 0 0
18:25 1019 30.09 848 25.04 -9.1 15.6 64 -14.8 5.4 0 0
18:26 1019 30.09 848 25.04 -8.9 16.1 62 -14.8 5.3 0 0
18:27 1019 30.09 848 25.04 -8.9 16 62 -15 5 0 0
18:28 1019 30.09 848 25.04 -8.9 15.9 62 -14.9 5.1 0 0
18:29 1019 30.09 848 25.04 -9 15.7 63 -14.9 5.1 0 0
18:30 1019 30.09 848 25.04 -9.1 15.6 64 -14.8 5.4 0 0
18:31 1019 30.09 848 25.04 -9 15.7 63 -14.9 5.2 0 0
18:32 1019 30.09 848 25.04 -9.2 15.5 62 -15.3 4.5 0 0
18:33 1019 30.09 848 25.04 -9.5 14.8 66 -14.7 5.5 0 0
18:34 1019 30.09 848 25.04 -9.5 14.9 68 -14.3 6.3 0 0
18:35 1019 30.09 848 25.04 -9.3 15.2 64 -15 5 0 0
18:36 1019 30.09 848 25.04 -9.6 14.7 64 -15.2 4.7 0 0
18:37 1019 30.09 848 25.04 -9.9 14.1 67 -15 5 0 0
18:38 1019 30.09 848 25.04 -10.2 13.6 66 -15.3 4.4 0 0
18:39 1019 30.09 848 25.04 -10.5 13.1 69 -15.1 4.9 0 0
18:40 1019 30.09 848 25.04 -10.5 13.1 70 -14.9 5.1 0 0
18:41 1019 30.09 848 25.04 -10.4 13.2 72 -14.6 5.8 0 0
18:42 1019 30.09 848 25.04 -10.3 13.5 69 -14.8 5.3 0 0
18:43 1019 30.09 848 25.04 -10.4 13.4 69 -15 5.1 0 0
18:44 1019 30.09 848 25.04 -10.5 13.2 72 -14.7 5.6 0 0
18:45 1019 30.09 848 25.04 -10.5 13.1 70 -14.9 5.2 0 0
18:46 1019 30.09 848 25.04 -10.8 12.7 72 -14.9 5.1 0 0
18:47 1019 30.09 848 25.04 -11.1 12.1 72 -15.1 4.8 0 0
18:48 1019 30.09 848 25.04 -11.3 11.8 75 -14.8 5.4 0 0
18:49 1019 30.09 848 25.04 -11.3 11.6 76 -14.8 5.4 0 0
18:50 1019 30.09 848 25.04 -11.3 11.6 76 -14.7 5.5 0 0
18:51 1019 30.09 848 25.04 -11.4 11.6 76 -14.8 5.4 0 0
18:52 1019 30.09 848 25.04 -11.4 11.6 75 -14.9 5.2 0 0
18:53 1019 30.09 848 25.04 -11.4 11.4 77 -14.7 5.5 0 0
18:54 1019 30.09 848 25.04 -11.4 11.6 78 -14.5 5.9 0 0
18:55 1019 30.09 848 25.04 -11.2 11.9 78 -14.3 6.3 0 0
18:56 1019 30.09 848 25.04 -11 12.3 76 -14.3 6.2 0 0
18:57 1019 30.09 848 25.04 -10.9 12.3 76 -14.4 6 0 0
18:58 1019 30.09 848 25.04 -11 12.3 75 -14.6 5.8 0 0
18:59 1019 30.09 848 25.04 -11.1 12 75 -14.7 5.5 0 0
19:00 1019 30.09 848 25.04 -11.2 11.9 76 -14.5 5.8 0 0
19:01 1019 30.09 848 25.04 -11.2 11.9 75 -14.8 5.3 0 0
19:02 1019 30.09 848 25.04 -11.4 11.5 72 -15.5 4.1 0 0
19:03 1019 30.09 848 25.04 -11.8 10.8 77 -15 5 0 0
19:04 1019 30.09 848 25.04 -11.7 10.9 81 -14.4 6.1 0 0
19:05 1019 30.09 848 25.04 -11.3 11.6 81 -14 6.9 0 0
19:06 1019 30.09 848 25.04 -10.8 12.5 80 -13.7 7.4 0 0
19:07 1019 30.09 848 25.04 -10.6 13 77 -13.9 7 0 0
19:08 1019 30.09 848 25.04 -10.6 13 76 -14 6.8 0 0
19:09 1019 30.09 848 25.04 -10.6 12.9 75 -14.2 6.5 0 0
19:10 1019 30.09 848 25.04 -10.7 12.7 75 -14.3 6.2 0 0
19:11 1019 30.09 848 25.04 -10.8 12.5 77 -14.2 6.5 0 0
19:12 1019 30.09 848 25.04 -10.8 12.6 78 -14 6.8 0 0
19:13 1019 30.09 848 25.04 -10.6 13 78 -13.8 7.2 0 0
19:14 1019 30.09 848 25.04 -10.3 13.5 75 -13.8 7.1 0 0
19:15 1019 30.09 848 25.04 -10.4 13.4 69 -15 5.1 0 0
19:16 1019 30.09 848 25.04 -10.9 12.3 72 -15.1 4.8 0 0
19:17 1019 30.09 848 25.04 -11.2 11.9 75 -14.8 5.4 0 0
19:18 1019 30.09 848 25.04 -11.2 11.9 74 -15 5 0 0
19:19 1019 30.09 848 25.04 -11.2 11.9 75 -14.7 5.5 0 0
19:20 1019 30.09 848 25.04 -11.2 11.9 75 -14.8 5.4 0 0
19:21 1019 30.09 848 25.04 -11.2 11.8 73 -15.1 4.8 0 0
19:22 1019 30.09 848 25.04 -11.3 11.7 76 -14.8 5.4 0 0
19:23 1019 30.09 848 25.04 -11.3 11.7 73 -15.3 4.5 0 0
19:24 1019 30.09 848 25.04 -11.5 11.3 74 -15.3 4.4 0 0
19:25 1019 30.09 848 25.04 -11.6 11 76 -15.1 4.8 0 0
19:26 1019 30.09 848 25.04 -11.6 11.2 77 -14.8 5.3 0 0
19:27 1019 30.09 848 25.04 -11.3 11.7 77 -14.6 5.7 0 0
19:28 1019 30.09 848 25.04 -11 12.2 74 -14.7 5.6 0 0
19:29 1019 30.09 848 25.04 -10.9 12.4 73 -14.8 5.4 0 0
19:30 1019 30.09 848 25.04 -10.9 12.3 74 -14.8 5.4 0 0
19:31 1019 30.09 848 25.04 -11 12.2 73 -15 5 0 0
19:32 1019 30.09 848 25.04 -11.2 11.8 71 -15.5 4 0 0
19:33 1019 30.09 848 25.04 -11.5 11.3 72 -15.5 4 0 0
19:34 1019 30.09 848 25.04 -11.7 10.9 74 -15.5 4.1 0 0
19:35 1019 30.09 848 25.04 -11.8 10.8 75 -15.4 4.2 0 0
19:36 1019 30.09 848 25.04 -11.8 10.7 74 -15.6 3.9 0 0
19:37 1019 30.09 848 25.04 -11.8 10.8 75 -15.4 4.3 0 0
19:38 1019 30.09 848 25.04 -11.7 10.9 73 -15.6 3.9 0 0
19:39 1019 30.09 848 25.04 -11.8 10.8 73 -15.6 3.9 0 0
19:40 1019 30.09 848 25.04 -11.8 10.8 73 -15.7 3.8 0 0
19:41 1019 30.09 848 25.04 -11.8 10.8 74 -15.5 4.1 0 0
19:42 1019 30.09 848 25.04 -11.6 11.1 75 -15.3 4.5 0 0
19:43 1019 30.09 848 25.04 -11.4 11.4 73 -15.3 4.4 0 0
19:44 1019 30.09 848 25.04 -11.3 11.7 73 -15.1 4.8 0 0
19:45 1019 30.09 848 25.04 -11 12.3 77 -14.2 6.4 0 0
19:46 1019 30.09 848 25.04 -10.2 13.7 75 -13.9 7 0 0
19:47 1019 30.09 848 25.04 -9.6 14.7 67 -14.6 5.6 0 0
19:48 1019 30.09 848 25.04 -9.9 14.2 63 -15.6 3.8 0 0
19:49 1019 30.09 848 25.04 -10.7 12.8 69 -15.3 4.4 0 0
19:50 1019 30.09 848 25.04 -11.1 12 72 -15.2 4.7 0 0
19:51 1019 30.09 848 25.04 -11.2 11.9 74 -14.9 5.1 0 0
19:52 1019 30.09 848 25.04 -11.3 11.6 73 -15.2 4.7 0 0
19:53 1019 30.09 848 25.04 -11.4 11.4 74 -15.2 4.7 0 0
19:54 1019 30.09 848 25.04 -11.5 11.3 77 -14.7 5.5 0 0
19:55 1019 30.09 848 25.04 -11.3 11.6 79 -14.3 6.3 0 0
19:56 1019 30.09 848 25.04 -11.1 12 78 -14.2 6.4 0 0
19:57 1019 30.09 848 25.04 -11.1 12.1 76 -14.6 5.8 0 0
19:58 1019 30.09 848 25.04 -11.2 11.9 77 -14.5 5.9 0 0
19:59 1019 30.09 848 25.04 -11.2 11.9 80 -14 6.8 0 0
20:00 1019 30.09 848 25.04 -11 12.2 79 -13.9 6.9 0 0
20:01 1019 30.09 848 25.04 -11 12.3 77 -14.3 6.3 0 0
20:02 1019 30.09 848 25.04 -11 12.1 77 -14.3 6.3 0 0
20:03 1019 30.09 848 25.04 -11.1 12 78 -14.3 6.3 0 0
20:04 1019 30.09 848 25.04 -11.2 11.9 78 -14.3 6.2 0 0
20:05 1019 30.09 848 25.04 -11.2 11.8 76 -14.7 5.6 0 0
20:06 1019 30.09 848 25.04 -11.3 11.7 79 -14.2 6.5 0 0
20:07 1019 30.09 848 25.04 -11.1 11.9 78 -14.2 6.4 0 0
20:08 1019 30.09 848 25.04 -11 12.2 79 -14 6.8 0 0
20:09 1019 30.09 848 25.04 -10.8 12.6 77 -14.1 6.6 0 0
20:10 1019 30.09 848 25.04 -10.8 12.6 76 -14.3 6.3 0 0
20:11 1019 30.09 848 25.04 -10.9 12.4 75 -14.5 6 0 0
20:12 1019 30.09 848 25.04 -11.1 12.1 76 -14.5 5.8 0 0
20:13 1019 30.09 848 25.04 -11.3 11.6 74 -15 4.9 0 0
20:14 1019 30.09 848 25.04 -11.6 11.2 77 -14.8 5.4 0 0
20:15 1019 30.09 848 25.04 -11.5 11.3 78 -14.6 5.8 0 0
20:16 1019 30.09 848 25.04 -11.5 11.4 77 -14.7 5.5 0 0
20:17 1019 30.09 848 25.04 -11.5 11.4 76 -14.9 5.1 0 0
20:18 1019 30.09 848 25.04 -11.6 11.1 77 -14.9 5.1 0 0
20:19 1019 30.09 848 25.04 -11.7 11 76 -15.1 4.8 0 0
20:20 1019 30.09 848 25.04 -11.9 10.7 77 -15.1 4.8 0 0
20:21 1019 30.09 848 25.04 -11.9 10.6 78 -15 5 0 0
20:22 1019 30.09 848 25.04 -11.9 10.7 78 -14.9 5.2 0 0
20:23 1019 30.09 848 25.04 -11.6 11 79 -14.5 5.9 0 0
20:24 1019 30.09 848 25.04 -11.5 11.3 74 -15.2 4.6 0 0
20:25 1019 30.09 848 25.04 -11.8 10.8 75 -15.3 4.4 0 0
20:26 1019 30.09 848 25.04 -12 10.5 77 -15.2 4.6 0 0
20:27 1019 30.09 848 25.04 -12 10.4 76 -15.4 4.3 0 0
20:28 1019 30.09 848 25.04 -11.9 10.5 79 -14.9 5.2 0 0
20:29 1019 30.09 848 25.04 -11.8 10.8 74 -15.5 4 0 0
20:30 1019 30.09 848 25.04 -12 10.3 75 -15.6 3.9 0 0
20:31 1019 30.09 848 25.04 -12.2 10.1 76 -15.5 4 0 0
20:32 1019 30.09 848 25.04 -12.2 10 75 -15.9 3.5 0 0
20:33 1019 30.09 848 25.04 -12.4 9.6 77 -15.7 3.7 0 0
20:34 1019 30.09 848 25.04 -12.5 9.5 76 -15.9 3.4 0 0
20:35 1019 30.09 848 25.04 -12.6 9.4 77 -15.8 3.6 0 0
20:36 1019 30.09 848 25.04 -12.7 9.2 78 -15.8 3.6 0 0
20:37 1019 30.09 848 25.04 -12.7 9.2 77 -15.9 3.4 0 0
20:38 1019 30.09 848 25.04 -12.8 9 77 -16.1 3.1 0 0
20:39 1019 30.09 848 25.04 -12.9 8.8 78 -16 3.1 0 0
20:40 1019 30.09 848 25.04 -13 8.7 79 -15.9 3.4 0 0
20:41 1019 30.09 848 25.04 -12.8 8.9 82 -15.3 4.5 0 0
20:42 1019 30.09 848 25.04 -12.5 9.5 81 -15.1 4.9 0 0
20:43 1019 30.09 848 25.04 -12.4 9.7 78 -15.5 4.2 0 0
20:44 1019 30.09 848 25.04 -12.4 9.6 81 -15.1 4.8 0 0
20:45 1019 30.09 848 25.04 -12.2 10.1 83 -14.5 5.9 0 0
20:46 1019 30.09 848 25.04 -11.9 10.5 81 -14.6 5.7 0 0
20:47 1019 30.09 848 25.04 -11.8 10.7 80 -14.6 5.7 0 0
20:48 1019 30.09 848 25.04 -11.7 11 80 -14.5 5.8 0 0
20:49 1019 30.09 848 25.04 -11.6 11.2 79 -14.5 5.9 0 0
20:50 1019 30.09 848 25.04 -11.5 11.3 79 -14.5 6 0 0
20:51 1019 30.09 848 25.04 -11.4 11.4 79 -14.4 6.1 0 0
20:52 1019 30.09 848 25.04 -11.2 11.8 81 -13.8 7.2 0 0
20:53 1019 30.09 848 25.04 -10.8 12.6 79 -13.8 7.1 0 0
20:54 1019 30.09 848 25.04 -10.5 13 75 -14.2 6.4 0 0
20:55 1019 30.09 848 25.04 -10.5 13 73 -14.5 6 0 0
20:56 1019 30.09 848 25.04 -10.6 12.9 72 -14.7 5.5 0 0
20:57 1019 30.09 848 25.04 -10.9 12.4 73 -14.9 5.2 0 0
20:58 1019 30.09 848 25.04 -11.1 12 72 -15.2 4.7 0 0
20:59 1019 30.09 848 25.04 -11.2 11.8 74 -15 4.9 0 0
21:00 1019 30.09 848 25.04 -11.3 11.6 74 -15.1 4.8 0 0
21:01 1019 30.09 848 25.04 -11.4 11.5 74 -15.1 4.8 0 0
21:02 1019 30.09 848 25.04 -11.4 11.5 76 -14.9 5.2 0 0
21:03 1019 30.09 848 25.04 -11.4 11.6 71 -15.6 3.8 0 0
21:04 1019 30.09 848 25.04 -11.8 10.7 71 -16 3.1 0 0
21:05 1019 30.09 848 25.04 -12.1 10.1 76 -15.6 3.9 0 0
21:06 1019 30.09 848 25.04 -12.2 10.1 75 -15.7 3.7 0 0
21:07 1019 30.09 848 25.04 -12.1 10.2 77 -15.3 4.4 0 0
21:08 1019 30.09 848 25.04 -11.9 10.5 76 -15.3 4.5 0 0
21:09 1019 30.09 848 25.04 -11.9 10.6 76 -15.3 4.4 0 0
21:10 1019 30.09 849 25.07 -11.9 10.7 76 -15.2 4.6 0 0
21:11 1019 30.09 848 25.04 -11.7 11 78 -14.8 5.3 0 0
21:12 1019 30.09 848 25.04 -11.4 11.4 77 -14.8 5.4 0 0
21:13 1019 30.09 849 25.07 -11.4 11.6 74 -15.1 4.8 0 0
21:14 1019 30.09 849 25.07 -11.3 11.6 74 -15 5 0 0
21:15 1019 30.09 849 25.07 -11.3 11.7 76 -14.8 5.4 0 0
21:16 1019 30.09 849 25.07 -11.1 12 74 -14.9 5.2 0 0
21:17 1019 30.09 849 25.07 -11.2 11.9 72 -15.2 4.6 0 0
21:18 1019 30.09 849 25.07 -11.4 11.5 74 -15.2 4.7 0 0
21:19 1019 30.09 849 25.07 -11.5 11.4 75 -15.1 4.9 0 0
21:20 1019 30.09 849 25.07 -11.4 11.4 74 -15.2 4.7 0 0
21:21 1019 30.09 849 25.07 -11.5 11.3 75 -15.1 4.8 0 0
21:22 1019 30.09 849 25.07 -11.5 11.3 74 -15.2 4.6 0 0
21:23 1019 30.09 849 25.07 -11.6 11.1 75 -15.2 4.6 0 0
21:24 1020 30.12 849 25.07 -11.6 11.1 76 -15 4.9 0 0
21:25 1020 30.12 849 25.07 -11.6 11.1 77 -14.9 5.1 0 0
21:26 1020 30.12 849 25.07 -11.5 11.2 76 -15 5 0 0
21:27 1020 30.12 849 25.07 -11.5 11.3 77 -14.7 5.5 0 0
21:28 1020 30.12 849 25.07 -11.3 11.6 77 -14.6 5.7 0 0
21:29 1020 30.12 849 25.07 -11.2 11.9 75 -14.7 5.5 0 0
21:30 1020 30.12 849 25.07 -11.1 12 75 -14.8 5.4 0 0
21:31 1020 30.12 849 25.07 -11.1 12 76 -14.5 5.9 0 0
21:32 1020 30.12 849 25.07 -11 12.3 76 -14.5 6 0 0
21:33 1020 30.12 849 25.07 -11 12.2 74 -14.9 5.3 0 0
21:34 1020 30.12 849 25.07 -11.2 11.9 75 -14.7 5.6 0 0
21:35 1020 30.12 849 25.07 -11.1 12 78 -14.3 6.3 0 0
21:36 1020 30.12 849 25.07 -10.9 12.5 78 -14 6.8 0 0
21:37 1020 30.12 849 25.07 -10.6 13 78 -13.8 7.2 0 0
21:38 1020 30.12 849 25.07 -10.2 13.6 77 -13.6 7.6 0 0
21:39 1020 30.12 849 25.07 -9.8 14.3 75 -13.5 7.7 0 0
21:40 1020 30.12 849 25.07 -9.6 14.7 74 -13.5 7.7 0 0
21:41 1020 30.12 849 25.07 -9.5 14.9 71 -13.8 7.2 0 0
21:42 1020 30.12 849 25.07 -9.6 14.8 71 -13.9 7 0 0
21:43 1020 30.12 849 25.07 -9.8 14.4 71 -14.1 6.7 0 0
21:44 1020 30.12 849 25.07 -10 14 71 -14.4 6.2 0 0
21:45 1020 30.12 849 25.07 -10.2 13.6 74 -14.1 6.7 0 0
21:46 1020 30.12 849 25.07 -10.2 13.6 73 -14.3 6.3 0 0
21:47 1020 30.12 849 25.07 -10.3 13.4 75 -14 6.8 0 0
21:48 1020 30.12 849 25.07 -10.3 13.6 74 -14.1 6.7 0 0
21:49 1020 30.12 849 25.07 -10.1 13.9 78 -13.3 8.1 0 0
21:50 1020 30.12 849 25.07 -9.6 14.7 73 -13.6 7.4 0 0
21:51 1020 30.12 849 25.07 -9.7 14.6 69 -14.4 6.2 0 0
21:52 1020 30.12 849 25.07 -9.9 14.1 74 -13.7 7.3 0 0
21:53 1019 30.09 849 25.07 -9.9 14.2 73 -13.8 7.2 0 0
21:54 1020 30.12 849 25.07 -9.9 14.2 72 -14 6.8 0 0
21:55 1020 30.12 849 25.07 -10 14 73 -14 6.7 0 0
21:56 1020 30.12 849 25.07 -10.1 13.8 74 -13.9 7.1 0 0
21:57 1020 30.12 849 25.07 -10 14 75 -13.6 7.5 0 0
21:58 1020 30.12 849 25.07 -9.9 14.2 72 -14 6.8 0 0
21:59 1020 30.12 849 25.07 -10 14 74 -13.9 7.1 0 0
22:00 1020 30.12 849 25.07 -9.9 14.2 74 -13.7 7.3 0 0
22:01 1020 30.12 849 25.07 -9.8 14.3 75 -13.4 7.9 0 0
22:02 1020 30.12 849 25.07 -9.7 14.5 72 -13.8 7.1 0 0
22:03 1020 30.12 849 25.07 -9.8 14.4 71 -14.1 6.7 0 0
22:04 1020 30.12 849 25.07 -10 14 73 -14 6.7 0 0
22:05 1020 30.12 849 25.07 -10.1 13.8 75 -13.8 7.1 0 0
22:06 1020 30.12 849 25.07 -10.1 13.9 73 -14 6.9 0 0
22:07 1020 30.12 849 25.07 -10.1 13.8 75 -13.8 7.1 0 0
22:08 1020 30.12 849 25.07 -10.1 13.8 74 -14 6.8 0 0
22:09 1020 30.12 849 25.07 -10.2 13.6 74 -14 6.8 0 0
22:10 1020 30.12 849 25.07 -10.4 13.3 74 -14.1 6.6 0 0
22:11 1020 30.12 849 25.07 -10.5 13.2 75 -14 6.7 0 0
22:12 1020 30.12 849 25.07 -10.5 13.2 75 -14 6.7 0 0
22:13 1020 30.12 849 25.07 -10.5 13.1 76 -14 6.8 0 0
22:14 1020 30.12 849 25.07 -10.5 13.1 76 -13.9 7 0 0
22:15 1020 30.12 849 25.07 -10.5 13.2 77 -13.8 7.2 0 0
22:16 1020 30.12 849 25.07 -10.5 13.2 78 -13.6 7.5 0 0
22:17 1020 30.12 849 25.07 -10.3 13.4 78 -13.5 7.8 0 0
22:18 1020 30.12 849 25.07 -10.2 13.6 78 -13.4 7.9 0 0
22:19 1020 30.12 849 25.07 -10.1 13.8 77 -13.4 8 0 0
22:20 1020 30.12 849 25.07 -10 14 78 -13.1 8.4 0 0
22:21 1020 30.12 849 25.07 -9.9 14.3 78 -13 8.6 0 0
22:22 1020 30.12 849 25.07 -9.7 14.6 78 -12.8 9 0 0
22:23 1020 30.12 849 25.07 -9.6 14.8 78 -12.7 9.1 0 0
22:24 1020 30.12 849 25.07 -9.5 15 78 -12.7 9.2 0 0
22:25 1020 30.12 849 25.07 -9.3 15.3 77 -12.6 9.3 0 0
22:26 1020 30.12 849 25.07 -9.2 15.4 77 -12.6 9.4 0 0
22:27 1020 30.12 849 25.07 -9.1 15.6 76 -12.5 9.5 0 0
22:28 1020 30.12 849 25.07 -9 15.7 76 -12.6 9.4 0 0
22:29 1020 30.12 849 25.07 -9.1 15.6 76 -12.6 9.3 0 0
22:30 1020 30.12 849 25.07 -9.2 15.5 76 -12.6 9.3 0 0
22:31 1020 30.12 849 25.07 -9.1 15.6 76 -12.6 9.3 0 0
22:32 1020 30.12 849 25.07 -9.1 15.6 76 -12.6 9.4 0 0
22:33 1020 30.12 849 25.07 -8.9 15.9 76 -12.5 9.5 0 0
22:34 1020 30.12 849 25.07 -8.8 16.1 74 -12.7 9.2 0 0
22:35 1020 30.12 849 25.07 -8.7 16.3 74 -12.6 9.3 0 0
22:36 1020 30.12 849 25.07 -8.7 16.3 74 -12.6 9.3 0 0
22:37 1020 30.12 849 25.07 -8.7 16.4 74 -12.5 9.4 0 0
22:38 1020 30.12 849 25.07 -8.6 16.5 74 -12.4 9.7 0 0
22:39 1020 30.12 849 25.07 -8.5 16.8 74 -12.3 9.8 0 0
22:40 1020 30.12 849 25.07 -8.4 17 73 -12.3 9.9 0 0
22:41 1020 30.12 849 25.07 -8.3 17.1 73 -12.3 9.9 0 0
22:42 1020 30.12 849 25.07 -8.3 17.2 73 -12.2 10 0 0
22:43 1020 30.12 849 25.07 -8.1 17.4 73 -12.1 10.1 0 0
22:44 1020 30.12 849 25.07 -8 17.6 73 -12.1 10.2 0 0
22:45 1020 30.12 849 25.07 -7.9 17.7 72 -12.1 10.3 0 0
22:46 1020 30.12 849 25.07 -7.9 17.8 72 -12 10.4 0 0
22:47 1020 30.12 849 25.07 -7.9 17.8 72 -12.2 10.1 0 0
22:48 1020 30.12 849 25.07 -8 17.7 71 -12.3 9.9 0 0
22:49 1020 30.12 849 25.07 -8 17.6 72 -12.2 10 0 0
22:50 1020 30.12 849 25.07 -8 17.6 72 -12.2 10.1 0 0
22:51 1020 30.12 849 25.07 -8 17.6 72 -12.2 10 0 0
22:52 1020 30.12 849 25.07 -8 17.5 72 -12.2 10 0 0
22:53 1020 30.12 849 25.07 -8 17.6 73 -12.1 10.2 0 0
22:54 1020 30.12 849 25.07 -8.1 17.5 73 -12.1 10.3 0 0
22:55 1020 30.12 849 25.07 -8.1 17.5 73 -12 10.3 0 0
22:56 1020 30.12 849 25.07 -8.1 17.4 73 -12 10.3 0 0
22:57 1020 30.12 849 25.07 -8.1 17.4 74 -12 10.3 0 0
22:58 1020 30.12 849 25.07 -8.1 17.4 74 -12 10.4 0 0
22:59 1020 30.12 849 25.07 -8.1 17.4 74 -12 10.4 0 0
23:00 1020 30.12 849 25.07 -8.1 17.4 74 -12 10.4 0 0
23:01 1020 30.12 849 25.07 -8.1 17.3 74 -12 10.5 0 0
23:02 1020 30.12 849 25.07 -8.2 17.3 74 -12 10.4 0 0
23:03 1020 30.12 849 25.07 -8.2 17.3 74 -12 10.4 0 0
23:04 1020 30.12 849 25.07 -8.2 17.3 74 -12 10.4 0 0
23:05 1020 30.12 849 25.07 -8.2 17.3 74 -11.9 10.5 0 0
23:06 1020 30.12 849 25.07 -8.2 17.3 74 -11.9 10.5 0 0
23:07 1020 30.12 849 25.07 -8.2 17.3 76 -11.7 10.9 0 0
23:08 1020 30.12 849 25.07 -8.1 17.5 75 -11.7 10.9 0 0
23:09 1020 30.12 849 25.07 -8 17.7 75 -11.7 10.9 0 0
23:10 1020 30.12 849 25.07 -7.9 17.7 74 -11.9 10.6 0 0
23:11 1020 30.12 849 25.07 -7.9 17.7 73 -12 10.5 0 0
23:12 1020 30.12 849 25.07 -7.9 17.7 73 -12 10.5 0 0
23:13 1020 30.12 849 25.07 -8 17.7 73 -12 10.4 0 0
23:14 1020 30.12 849 25.07 -8 17.6 73 -12 10.5 0 0
23:15 1020 30.12 849 25.07 -8 17.6 74 -11.9 10.6 0 0
23:16 1020 30.12 849 25.07 -8 17.7 75 -11.7 10.9 0 0
23:17 1020 30.12 849 25.07 -8 17.7 75 -11.7 11 0 0
23:18 1020 30.12 849 25.07 -8 17.7 75 -11.6 11.1 0 0
23:19 1020 30.12 849 25.07 -8 17.7 75 -11.6 11.1 0 0
23:20 1020 30.12 849 25.07 -7.9 17.7 75 -11.6 11.2 0 0
23:21 1020 30.12 849 25.07 -8 17.6 75 -11.6 11.1 0 0
23:22 1020 30.12 849 25.07 -8 17.6 76 -11.6 11.2 0 0
23:23 1020 30.12 849 25.07 -7.9 17.7 76 -11.5 11.3 0 0
23:24 1020 30.12 849 25.07 -8 17.6 75 -11.7 10.9 0 0
23:25 1020 30.12 849 25.07 -8 17.7 74 -11.7 10.9 0 0
23:26 1020 30.12 849 25.07 -8 17.6 74 -11.8 10.8 0 0
23:27 1020 30.12 849 25.07 -8.1 17.5 75 -11.8 10.7 0 0
23:28 1020 30.12 849 25.07 -8.1 17.5 75 -11.8 10.7 0 0
23:29 1020 30.12 849 25.07 -8.1 17.4 75 -11.8 10.8 0 0
23:30 1020 30.12 849 25.07 -8.2 17.3 75 -11.8 10.8 0 0
23:31 1020 30.12 849 25.07 -8.2 17.2 76 -11.8 10.8 0 0
23:32 1020 30.12 849 25.07 -8.2 17.3 76 -11.7 10.9 0 0
23:33 1020 30.12 849 25.07 -8.2 17.2 76 -11.7 10.9 0 0
23:34 1020 30.12 849 25.07 -8.2 17.3 76 -11.7 10.9 0 0
23:35 1020 30.12 849 25.07 -8.2 17.3 76 -11.7 10.9 0 0
23:36 1020 30.12 849 25.07 -8.1 17.4 75 -11.7 10.9 0 0
23:37 1020 30.12 849 25.07 -8 17.5 75 -11.7 11 0 0
23:38 1020 30.12 849 25.07 -8 17.6 75 -11.7 10.9 0 0
23:39 1020 30.12 849 25.07 -8 17.6 75 -11.7 10.9 0 0
23:40 1020 30.12 849 25.07 -8 17.6 75 -11.7 10.9 0 0
23:41 1020 30.12 849 25.07 -8.1 17.5 75 -11.7 10.9 0 0
23:42 1020 30.12 849 25.07 -8.1 17.4 76 -11.7 11 0 0
23:43 1020 30.12 849 25.07 -8.1 17.4 76 -11.6 11.1 0 0
23:44 1020 30.12 849 25.07 -8.2 17.3 77 -11.6 11.1 0 0
23:45 1020 30.12 849 25.07 -8.2 17.3 77 -11.5 11.2 0 0
23:46 1020 30.12 849 25.07 -8.2 17.2 77 -11.6 11.2 0 0
23:47 1020 30.12 849 25.07 -8.3 17.2 78 -11.5 11.3 0 0
23:48 1020 30.12 849 25.07 -8.2 17.2 77 -11.6 11.2 0 0
23:49 1020 30.12 849 25.07 -8.2 17.3 77 -11.6 11.1 0 0
23:50 1020 30.12 849 25.07 -8.1 17.5 76 -11.7 11 0 0
23:51 1020 30.12 849 25.07 -8.1 17.5 75 -11.7 10.9 0 0
23:52 1020 30.12 849 25.07 -8.2 17.3 76 -11.7 11 0 0
23:53 1020 30.12 849 25.07 -8.2 17.3 76 -11.7 10.9 0 0
23:54 1020 30.12 849 25.07 -8.2 17.2 76 -11.7 10.9 0 0
23:55 1020 30.12 849 25.07 -8.3 17 77 -11.7 11 0 0
23:56 1020 30.12 849 25.07 -8.4 16.8 77 -11.7 10.9 0 0
23:57 1020 30.12 849 25.07 -8.5 16.6 78 -11.8 10.8 0 0
23:58 1020 30.12 849 25.07 -8.6 16.5 78 -11.8 10.7 0 0
23:59 1020 30.12 849 25.07 -8.7 16.4 78 -11.9 10.6 0 0
24:00 1020 30.12 849 25.07 -8.8 16.3 78 -11.9 10.5 0 0